<?xml version="1.0" encoding="UTF-8" standalone="no" ?>
<gpx xmlns="http://www.topografix.com/GPX/1/1" xmlns:xsi="http://www.w3.org/2001/XMLSchema-instance" xsi:schemaLocation="http://www.topografix.com/GPX/1/1 http://www.topografix.com/GPX/1/1/gpx.xsd" version="1.1" creator="VisuGPX - https://www.visugpx.com">
  <metadata>
    <name>7612587-Parcours Foret d'Ombrée</name>
  </metadata>
  <trk>
    <name><![CDATA[7612587-Parcours Foret d'Ombrée]]></name>
    <trkseg>
      <trkpt lat="47.69181" lon="-0.87078">
        <ele>56</ele>
        <time>2021-05-04T14:44:38Z</time>
      </trkpt>
      <trkpt lat="47.69168" lon="-0.87084">
        <ele>56</ele>
        <time>2021-05-04T14:44:41Z</time>
      </trkpt>
      <trkpt lat="47.69165" lon="-0.87077">
        <ele>56</ele>
        <time>2021-05-04T14:44:42Z</time>
      </trkpt>
      <trkpt lat="47.69158" lon="-0.871">
        <ele>56</ele>
        <time>2021-05-04T14:44:46Z</time>
      </trkpt>
      <trkpt lat="47.69105" lon="-0.87116">
        <ele>54</ele>
        <time>2021-05-04T14:44:59Z</time>
      </trkpt>
      <trkpt lat="47.69098" lon="-0.8714">
        <ele>54</ele>
        <time>2021-05-04T14:45:03Z</time>
      </trkpt>
      <trkpt lat="47.69106" lon="-0.8717">
        <ele>54</ele>
        <time>2021-05-04T14:45:08Z</time>
      </trkpt>
      <trkpt lat="47.69116" lon="-0.87254">
        <ele>54</ele>
        <time>2021-05-04T14:45:22Z</time>
      </trkpt>
      <trkpt lat="47.69175" lon="-0.87576">
        <ele>54</ele>
        <time>2021-05-04T14:46:14Z</time>
      </trkpt>
      <trkpt lat="47.69166" lon="-0.87598">
        <ele>54</ele>
        <time>2021-05-04T14:46:18Z</time>
      </trkpt>
      <trkpt lat="47.69149" lon="-0.87618">
        <ele>53</ele>
        <time>2021-05-04T14:46:23Z</time>
      </trkpt>
      <trkpt lat="47.69141" lon="-0.87622">
        <ele>53</ele>
        <time>2021-05-04T14:46:25Z</time>
      </trkpt>
      <trkpt lat="47.69118" lon="-0.8772">
        <ele>51</ele>
        <time>2021-05-04T14:46:42Z</time>
      </trkpt>
      <trkpt lat="47.69105" lon="-0.87763">
        <ele>51</ele>
        <time>2021-05-04T14:46:49Z</time>
      </trkpt>
      <trkpt lat="47.69084" lon="-0.878">
        <ele>50</ele>
        <time>2021-05-04T14:46:57Z</time>
      </trkpt>
      <trkpt lat="47.69061" lon="-0.87832">
        <ele>50</ele>
        <time>2021-05-04T14:47:04Z</time>
      </trkpt>
      <trkpt lat="47.69045" lon="-0.87849">
        <ele>49</ele>
        <time>2021-05-04T14:47:09Z</time>
      </trkpt>
      <trkpt lat="47.68988" lon="-0.87884">
        <ele>48</ele>
        <time>2021-05-04T14:47:23Z</time>
      </trkpt>
      <trkpt lat="47.68924" lon="-0.87914">
        <ele>48</ele>
        <time>2021-05-04T14:47:39Z</time>
      </trkpt>
      <trkpt lat="47.68865" lon="-0.87933">
        <ele>47</ele>
        <time>2021-05-04T14:47:53Z</time>
      </trkpt>
      <trkpt lat="47.68797" lon="-0.87937">
        <ele>44</ele>
        <time>2021-05-04T14:48:09Z</time>
      </trkpt>
      <trkpt lat="47.68755" lon="-0.87931">
        <ele>41</ele>
        <time>2021-05-04T14:48:18Z</time>
      </trkpt>
      <trkpt lat="47.6867" lon="-0.87903">
        <ele>33</ele>
        <time>2021-05-04T14:48:39Z</time>
      </trkpt>
      <trkpt lat="47.68652" lon="-0.87959">
        <ele>31</ele>
        <time>2021-05-04T14:48:49Z</time>
      </trkpt>
      <trkpt lat="47.68652" lon="-0.87991">
        <ele>29</ele>
        <time>2021-05-04T14:48:54Z</time>
      </trkpt>
      <trkpt lat="47.68673" lon="-0.88035">
        <ele>28</ele>
        <time>2021-05-04T14:49:02Z</time>
      </trkpt>
      <trkpt lat="47.68739" lon="-0.88128">
        <ele>30</ele>
        <time>2021-05-04T14:49:23Z</time>
      </trkpt>
      <trkpt lat="47.68829" lon="-0.88245">
        <ele>30</ele>
        <time>2021-05-04T14:49:51Z</time>
      </trkpt>
      <trkpt lat="47.68908" lon="-0.88332">
        <ele>30</ele>
        <time>2021-05-04T14:50:14Z</time>
      </trkpt>
      <trkpt lat="47.69029" lon="-0.88486">
        <ele>30</ele>
        <time>2021-05-04T14:50:51Z</time>
      </trkpt>
      <trkpt lat="47.69057" lon="-0.88515">
        <ele>30</ele>
        <time>2021-05-04T14:50:59Z</time>
      </trkpt>
      <trkpt lat="47.69087" lon="-0.8854">
        <ele>30</ele>
        <time>2021-05-04T14:51:07Z</time>
      </trkpt>
      <trkpt lat="47.69169" lon="-0.88595">
        <ele>28</ele>
        <time>2021-05-04T14:51:28Z</time>
      </trkpt>
      <trkpt lat="47.69199" lon="-0.88621">
        <ele>28</ele>
        <time>2021-05-04T14:51:36Z</time>
      </trkpt>
      <trkpt lat="47.6922" lon="-0.88661">
        <ele>28</ele>
        <time>2021-05-04T14:51:44Z</time>
      </trkpt>
      <trkpt lat="47.69233" lon="-0.88782">
        <ele>26</ele>
        <time>2021-05-04T14:52:04Z</time>
      </trkpt>
      <trkpt lat="47.69243" lon="-0.88844">
        <ele>26</ele>
        <time>2021-05-04T14:52:14Z</time>
      </trkpt>
      <trkpt lat="47.69261" lon="-0.88901">
        <ele>29</ele>
        <time>2021-05-04T14:52:24Z</time>
      </trkpt>
      <trkpt lat="47.69304" lon="-0.88999">
        <ele>33</ele>
        <time>2021-05-04T14:52:42Z</time>
      </trkpt>
      <trkpt lat="47.69322" lon="-0.89049">
        <ele>33</ele>
        <time>2021-05-04T14:52:51Z</time>
      </trkpt>
      <trkpt lat="47.69329" lon="-0.89103">
        <ele>34</ele>
        <time>2021-05-04T14:53:00Z</time>
      </trkpt>
      <trkpt lat="47.6932" lon="-0.89159">
        <ele>37</ele>
        <time>2021-05-04T14:53:09Z</time>
      </trkpt>
      <trkpt lat="47.69299" lon="-0.89202">
        <ele>39</ele>
        <time>2021-05-04T14:53:17Z</time>
      </trkpt>
      <trkpt lat="47.69256" lon="-0.89272">
        <ele>42</ele>
        <time>2021-05-04T14:53:32Z</time>
      </trkpt>
      <trkpt lat="47.69241" lon="-0.89301">
        <ele>42</ele>
        <time>2021-05-04T14:53:38Z</time>
      </trkpt>
      <trkpt lat="47.69263" lon="-0.89367">
        <ele>41</ele>
        <time>2021-05-04T14:53:49Z</time>
      </trkpt>
      <trkpt lat="47.6928" lon="-0.89383">
        <ele>40</ele>
        <time>2021-05-04T14:53:54Z</time>
      </trkpt>
      <trkpt lat="47.6931" lon="-0.89399">
        <ele>39</ele>
        <time>2021-05-04T14:54:01Z</time>
      </trkpt>
      <trkpt lat="47.69365" lon="-0.89394">
        <ele>39</ele>
        <time>2021-05-04T14:54:14Z</time>
      </trkpt>
      <trkpt lat="47.69377" lon="-0.89427">
        <ele>40</ele>
        <time>2021-05-04T14:54:20Z</time>
      </trkpt>
      <trkpt lat="47.69375" lon="-0.89453">
        <ele>40</ele>
        <time>2021-05-04T14:54:24Z</time>
      </trkpt>
      <trkpt lat="47.69378" lon="-0.89479">
        <ele>41</ele>
        <time>2021-05-04T14:54:28Z</time>
      </trkpt>
      <trkpt lat="47.69374" lon="-0.89503">
        <ele>41</ele>
        <time>2021-05-04T14:54:32Z</time>
      </trkpt>
      <trkpt lat="47.6933" lon="-0.89563">
        <ele>41</ele>
        <time>2021-05-04T14:54:46Z</time>
      </trkpt>
      <trkpt lat="47.69315" lon="-0.896">
        <ele>42</ele>
        <time>2021-05-04T14:54:53Z</time>
      </trkpt>
      <trkpt lat="47.69307" lon="-0.89648">
        <ele>43</ele>
        <time>2021-05-04T14:55:01Z</time>
      </trkpt>
      <trkpt lat="47.69304" lon="-0.89697">
        <ele>44</ele>
        <time>2021-05-04T14:55:09Z</time>
      </trkpt>
      <trkpt lat="47.69306" lon="-0.89788">
        <ele>45</ele>
        <time>2021-05-04T14:55:23Z</time>
      </trkpt>
      <trkpt lat="47.69314" lon="-0.89839">
        <ele>46</ele>
        <time>2021-05-04T14:55:31Z</time>
      </trkpt>
      <trkpt lat="47.69326" lon="-0.8988">
        <ele>45</ele>
        <time>2021-05-04T14:55:38Z</time>
      </trkpt>
      <trkpt lat="47.69359" lon="-0.89973">
        <ele>44</ele>
        <time>2021-05-04T14:55:55Z</time>
      </trkpt>
      <trkpt lat="47.69382" lon="-0.9001">
        <ele>43</ele>
        <time>2021-05-04T14:56:03Z</time>
      </trkpt>
      <trkpt lat="47.69444" lon="-0.90062">
        <ele>42</ele>
        <time>2021-05-04T14:56:19Z</time>
      </trkpt>
      <trkpt lat="47.69484" lon="-0.90102">
        <ele>41</ele>
        <time>2021-05-04T14:56:30Z</time>
      </trkpt>
      <trkpt lat="47.69722" lon="-0.9047">
        <ele>40</ele>
        <time>2021-05-04T14:57:51Z</time>
      </trkpt>
      <trkpt lat="47.69747" lon="-0.90524">
        <ele>40</ele>
        <time>2021-05-04T14:58:01Z</time>
      </trkpt>
      <trkpt lat="47.69834" lon="-0.90744">
        <ele>39</ele>
        <time>2021-05-04T14:58:41Z</time>
      </trkpt>
      <trkpt lat="47.69856" lon="-0.90794">
        <ele>41</ele>
        <time>2021-05-04T14:58:50Z</time>
      </trkpt>
      <trkpt lat="47.69883" lon="-0.90817">
        <ele>42</ele>
        <time>2021-05-04T14:58:58Z</time>
      </trkpt>
      <trkpt lat="47.69932" lon="-0.90831">
        <ele>43</ele>
        <time>2021-05-04T14:59:09Z</time>
      </trkpt>
      <trkpt lat="47.6996" lon="-0.90835">
        <ele>44</ele>
        <time>2021-05-04T14:59:16Z</time>
      </trkpt>
      <trkpt lat="47.69995" lon="-0.90789">
        <ele>44</ele>
        <time>2021-05-04T14:59:27Z</time>
      </trkpt>
      <trkpt lat="47.69994" lon="-0.90768">
        <ele>44</ele>
        <time>2021-05-04T14:59:30Z</time>
      </trkpt>
      <trkpt lat="47.70002" lon="-0.90789">
        <ele>44</ele>
        <time>2021-05-04T14:59:34Z</time>
      </trkpt>
      <trkpt lat="47.6998" lon="-0.90815">
        <ele>44</ele>
        <time>2021-05-04T14:59:40Z</time>
      </trkpt>
      <trkpt lat="47.69976" lon="-0.90837">
        <ele>44</ele>
        <time>2021-05-04T14:59:44Z</time>
      </trkpt>
      <trkpt lat="47.70053" lon="-0.90895">
        <ele>46</ele>
        <time>2021-05-04T15:00:04Z</time>
      </trkpt>
      <trkpt lat="47.70069" lon="-0.90913">
        <ele>46</ele>
        <time>2021-05-04T15:00:09Z</time>
      </trkpt>
      <trkpt lat="47.70105" lon="-0.9097">
        <ele>47</ele>
        <time>2021-05-04T15:00:21Z</time>
      </trkpt>
      <trkpt lat="47.70123" lon="-0.91016">
        <ele>48</ele>
        <time>2021-05-04T15:00:30Z</time>
      </trkpt>
      <trkpt lat="47.70145" lon="-0.91083">
        <ele>49</ele>
        <time>2021-05-04T15:00:41Z</time>
      </trkpt>
      <trkpt lat="47.70169" lon="-0.91176">
        <ele>48</ele>
        <time>2021-05-04T15:00:57Z</time>
      </trkpt>
      <trkpt lat="47.70191" lon="-0.91236">
        <ele>50</ele>
        <time>2021-05-04T15:01:08Z</time>
      </trkpt>
      <trkpt lat="47.70222" lon="-0.91406">
        <ele>51</ele>
        <time>2021-05-04T15:01:35Z</time>
      </trkpt>
      <trkpt lat="47.70226" lon="-0.91438">
        <ele>52</ele>
        <time>2021-05-04T15:01:40Z</time>
      </trkpt>
      <trkpt lat="47.70237" lon="-0.91485">
        <ele>54</ele>
        <time>2021-05-04T15:01:48Z</time>
      </trkpt>
      <trkpt lat="47.70245" lon="-0.91507">
        <ele>54</ele>
        <time>2021-05-04T15:01:52Z</time>
      </trkpt>
      <trkpt lat="47.70256" lon="-0.91582">
        <ele>57</ele>
        <time>2021-05-04T15:02:04Z</time>
      </trkpt>
      <trkpt lat="47.70247" lon="-0.91616">
        <ele>59</ele>
        <time>2021-05-04T15:02:10Z</time>
      </trkpt>
      <trkpt lat="47.70219" lon="-0.91794">
        <ele>65</ele>
        <time>2021-05-04T15:02:39Z</time>
      </trkpt>
      <trkpt lat="47.70174" lon="-0.92037">
        <ele>70</ele>
        <time>2021-05-04T15:03:18Z</time>
      </trkpt>
      <trkpt lat="47.70158" lon="-0.92081">
        <ele>70</ele>
        <time>2021-05-04T15:03:26Z</time>
      </trkpt>
      <trkpt lat="47.70157" lon="-0.921">
        <ele>71</ele>
        <time>2021-05-04T15:03:29Z</time>
      </trkpt>
      <trkpt lat="47.7019" lon="-0.92204">
        <ele>74</ele>
        <time>2021-05-04T15:03:47Z</time>
      </trkpt>
      <trkpt lat="47.70267" lon="-0.92478">
        <ele>81</ele>
        <time>2021-05-04T15:04:34Z</time>
      </trkpt>
      <trkpt lat="47.7033" lon="-0.92673">
        <ele>83</ele>
        <time>2021-05-04T15:05:08Z</time>
      </trkpt>
      <trkpt lat="47.70342" lon="-0.92716">
        <ele>83</ele>
        <time>2021-05-04T15:05:15Z</time>
      </trkpt>
      <trkpt lat="47.70346" lon="-0.92742">
        <ele>83</ele>
        <time>2021-05-04T15:05:19Z</time>
      </trkpt>
      <trkpt lat="47.70408" lon="-0.92821">
        <ele>83</ele>
        <time>2021-05-04T15:05:39Z</time>
      </trkpt>
      <trkpt lat="47.70443" lon="-0.92883">
        <ele>82</ele>
        <time>2021-05-04T15:05:51Z</time>
      </trkpt>
      <trkpt lat="47.70496" lon="-0.92963">
        <ele>82</ele>
        <time>2021-05-04T15:06:09Z</time>
      </trkpt>
      <trkpt lat="47.70509" lon="-0.92994">
        <ele>83</ele>
        <time>2021-05-04T15:06:15Z</time>
      </trkpt>
      <trkpt lat="47.70525" lon="-0.93123">
        <ele>85</ele>
        <time>2021-05-04T15:06:35Z</time>
      </trkpt>
      <trkpt lat="47.70524" lon="-0.93192">
        <ele>86</ele>
        <time>2021-05-04T15:06:46Z</time>
      </trkpt>
      <trkpt lat="47.70518" lon="-0.9323">
        <ele>88</ele>
        <time>2021-05-04T15:06:52Z</time>
      </trkpt>
      <trkpt lat="47.70501" lon="-0.933">
        <ele>90</ele>
        <time>2021-05-04T15:07:04Z</time>
      </trkpt>
      <trkpt lat="47.70472" lon="-0.93374">
        <ele>91</ele>
        <time>2021-05-04T15:07:17Z</time>
      </trkpt>
      <trkpt lat="47.7045" lon="-0.934">
        <ele>91</ele>
        <time>2021-05-04T15:07:24Z</time>
      </trkpt>
      <trkpt lat="47.70363" lon="-0.93448">
        <ele>92</ele>
        <time>2021-05-04T15:07:46Z</time>
      </trkpt>
      <trkpt lat="47.7035" lon="-0.93486">
        <ele>91</ele>
        <time>2021-05-04T15:07:52Z</time>
      </trkpt>
      <trkpt lat="47.7034" lon="-0.93807">
        <ele>92</ele>
        <time>2021-05-04T15:08:43Z</time>
      </trkpt>
      <trkpt lat="47.70344" lon="-0.93977">
        <ele>91</ele>
        <time>2021-05-04T15:09:10Z</time>
      </trkpt>
      <trkpt lat="47.70339" lon="-0.94053">
        <ele>92</ele>
        <time>2021-05-04T15:09:22Z</time>
      </trkpt>
      <trkpt lat="47.70329" lon="-0.94101">
        <ele>93</ele>
        <time>2021-05-04T15:09:29Z</time>
      </trkpt>
      <trkpt lat="47.70308" lon="-0.94139">
        <ele>93</ele>
        <time>2021-05-04T15:09:37Z</time>
      </trkpt>
      <trkpt lat="47.70281" lon="-0.94152">
        <ele>92</ele>
        <time>2021-05-04T15:09:44Z</time>
      </trkpt>
      <trkpt lat="47.70253" lon="-0.9416">
        <ele>92</ele>
        <time>2021-05-04T15:09:50Z</time>
      </trkpt>
      <trkpt lat="47.70229" lon="-0.94175">
        <ele>91</ele>
        <time>2021-05-04T15:09:57Z</time>
      </trkpt>
      <trkpt lat="47.70217" lon="-0.94188">
        <ele>91</ele>
        <time>2021-05-04T15:10:00Z</time>
      </trkpt>
      <trkpt lat="47.70218" lon="-0.94225">
        <ele>91</ele>
        <time>2021-05-04T15:10:06Z</time>
      </trkpt>
      <trkpt lat="47.7021" lon="-0.94261">
        <ele>91</ele>
        <time>2021-05-04T15:10:12Z</time>
      </trkpt>
      <trkpt lat="47.70203" lon="-0.9432">
        <ele>93</ele>
        <time>2021-05-04T15:10:21Z</time>
      </trkpt>
      <trkpt lat="47.70184" lon="-0.94349">
        <ele>93</ele>
        <time>2021-05-04T15:10:28Z</time>
      </trkpt>
      <trkpt lat="47.70191" lon="-0.94385">
        <ele>94</ele>
        <time>2021-05-04T15:10:33Z</time>
      </trkpt>
      <trkpt lat="47.7021" lon="-0.94428">
        <ele>95</ele>
        <time>2021-05-04T15:10:42Z</time>
      </trkpt>
      <trkpt lat="47.70224" lon="-0.94513">
        <ele>95</ele>
        <time>2021-05-04T15:10:55Z</time>
      </trkpt>
      <trkpt lat="47.70214" lon="-0.94542">
        <ele>95</ele>
        <time>2021-05-04T15:11:00Z</time>
      </trkpt>
      <trkpt lat="47.70174" lon="-0.94537">
        <ele>95</ele>
        <time>2021-05-04T15:11:10Z</time>
      </trkpt>
      <trkpt lat="47.7015" lon="-0.94527">
        <ele>95</ele>
        <time>2021-05-04T15:11:16Z</time>
      </trkpt>
      <trkpt lat="47.70134" lon="-0.94552">
        <ele>95</ele>
        <time>2021-05-04T15:11:21Z</time>
      </trkpt>
      <trkpt lat="47.70122" lon="-0.94617">
        <ele>95</ele>
        <time>2021-05-04T15:11:32Z</time>
      </trkpt>
      <trkpt lat="47.70077" lon="-0.94822">
        <ele>96</ele>
        <time>2021-05-04T15:12:06Z</time>
      </trkpt>
      <trkpt lat="47.70061" lon="-0.94866">
        <ele>95</ele>
        <time>2021-05-04T15:12:13Z</time>
      </trkpt>
      <trkpt lat="47.70036" lon="-0.94888">
        <ele>94</ele>
        <time>2021-05-04T15:12:20Z</time>
      </trkpt>
      <trkpt lat="47.6997" lon="-0.94921">
        <ele>92</ele>
        <time>2021-05-04T15:12:36Z</time>
      </trkpt>
      <trkpt lat="47.69867" lon="-0.94995">
        <ele>85</ele>
        <time>2021-05-04T15:13:03Z</time>
      </trkpt>
      <trkpt lat="47.69817" lon="-0.95018">
        <ele>81</ele>
        <time>2021-05-04T15:13:15Z</time>
      </trkpt>
      <trkpt lat="47.69759" lon="-0.95068">
        <ele>74</ele>
        <time>2021-05-04T15:13:31Z</time>
      </trkpt>
      <trkpt lat="47.69681" lon="-0.9514">
        <ele>68</ele>
        <time>2021-05-04T15:13:52Z</time>
      </trkpt>
      <trkpt lat="47.69611" lon="-0.95189">
        <ele>64</ele>
        <time>2021-05-04T15:14:11Z</time>
      </trkpt>
      <trkpt lat="47.69598" lon="-0.95188">
        <ele>64</ele>
        <time>2021-05-04T15:14:14Z</time>
      </trkpt>
      <trkpt lat="47.69564" lon="-0.95145">
        <ele>63</ele>
        <time>2021-05-04T15:14:24Z</time>
      </trkpt>
      <trkpt lat="47.6954" lon="-0.95124">
        <ele>62</ele>
        <time>2021-05-04T15:14:31Z</time>
      </trkpt>
      <trkpt lat="47.69517" lon="-0.95118">
        <ele>62</ele>
        <time>2021-05-04T15:14:36Z</time>
      </trkpt>
      <trkpt lat="47.69503" lon="-0.95161">
        <ele>62</ele>
        <time>2021-05-04T15:14:43Z</time>
      </trkpt>
      <trkpt lat="47.69503" lon="-0.9519">
        <ele>62</ele>
        <time>2021-05-04T15:14:48Z</time>
      </trkpt>
      <trkpt lat="47.6951" lon="-0.95295">
        <ele>63</ele>
        <time>2021-05-04T15:15:05Z</time>
      </trkpt>
      <trkpt lat="47.69523" lon="-0.95384">
        <ele>64</ele>
        <time>2021-05-04T15:15:19Z</time>
      </trkpt>
      <trkpt lat="47.6954" lon="-0.95475">
        <ele>64</ele>
        <time>2021-05-04T15:15:34Z</time>
      </trkpt>
      <trkpt lat="47.69576" lon="-0.9563">
        <ele>63</ele>
        <time>2021-05-04T15:16:00Z</time>
      </trkpt>
      <trkpt lat="47.69606" lon="-0.95724">
        <ele>63</ele>
        <time>2021-05-04T15:16:16Z</time>
      </trkpt>
      <trkpt lat="47.69619" lon="-0.95784">
        <ele>62</ele>
        <time>2021-05-04T15:16:26Z</time>
      </trkpt>
      <trkpt lat="47.6964" lon="-0.95838">
        <ele>61</ele>
        <time>2021-05-04T15:16:36Z</time>
      </trkpt>
      <trkpt lat="47.69647" lon="-0.95868">
        <ele>61</ele>
        <time>2021-05-04T15:16:41Z</time>
      </trkpt>
      <trkpt lat="47.69682" lon="-0.95979">
        <ele>61</ele>
        <time>2021-05-04T15:17:00Z</time>
      </trkpt>
      <trkpt lat="47.69698" lon="-0.96008">
        <ele>61</ele>
        <time>2021-05-04T15:17:06Z</time>
      </trkpt>
      <trkpt lat="47.69731" lon="-0.96057">
        <ele>60</ele>
        <time>2021-05-04T15:17:17Z</time>
      </trkpt>
      <trkpt lat="47.69737" lon="-0.96084">
        <ele>60</ele>
        <time>2021-05-04T15:17:21Z</time>
      </trkpt>
      <trkpt lat="47.6975" lon="-0.96109">
        <ele>60</ele>
        <time>2021-05-04T15:17:26Z</time>
      </trkpt>
      <trkpt lat="47.69767" lon="-0.96118">
        <ele>60</ele>
        <time>2021-05-04T15:17:30Z</time>
      </trkpt>
      <trkpt lat="47.69789" lon="-0.96113">
        <ele>61</ele>
        <time>2021-05-04T15:17:36Z</time>
      </trkpt>
      <trkpt lat="47.69816" lon="-0.96162">
        <ele>61</ele>
        <time>2021-05-04T15:17:45Z</time>
      </trkpt>
      <trkpt lat="47.69837" lon="-0.96214">
        <ele>60</ele>
        <time>2021-05-04T15:17:55Z</time>
      </trkpt>
      <trkpt lat="47.69876" lon="-0.96291">
        <ele>60</ele>
        <time>2021-05-04T15:18:10Z</time>
      </trkpt>
      <trkpt lat="47.69914" lon="-0.96374">
        <ele>61</ele>
        <time>2021-05-04T15:18:26Z</time>
      </trkpt>
      <trkpt lat="47.69936" lon="-0.96435">
        <ele>63</ele>
        <time>2021-05-04T15:18:37Z</time>
      </trkpt>
      <trkpt lat="47.69985" lon="-0.96534">
        <ele>64</ele>
        <time>2021-05-04T15:18:56Z</time>
      </trkpt>
      <trkpt lat="47.70032" lon="-0.96638">
        <ele>63</ele>
        <time>2021-05-04T15:19:16Z</time>
      </trkpt>
      <trkpt lat="47.7006" lon="-0.96707">
        <ele>64</ele>
        <time>2021-05-04T15:19:28Z</time>
      </trkpt>
      <trkpt lat="47.70091" lon="-0.96794">
        <ele>66</ele>
        <time>2021-05-04T15:19:44Z</time>
      </trkpt>
      <trkpt lat="47.7011" lon="-0.96869">
        <ele>67</ele>
        <time>2021-05-04T15:19:57Z</time>
      </trkpt>
      <trkpt lat="47.70114" lon="-0.96904">
        <ele>68</ele>
        <time>2021-05-04T15:20:02Z</time>
      </trkpt>
      <trkpt lat="47.70114" lon="-0.96935">
        <ele>67</ele>
        <time>2021-05-04T15:20:07Z</time>
      </trkpt>
      <trkpt lat="47.70123" lon="-0.96973">
        <ele>67</ele>
        <time>2021-05-04T15:20:13Z</time>
      </trkpt>
      <trkpt lat="47.70125" lon="-0.97003">
        <ele>67</ele>
        <time>2021-05-04T15:20:18Z</time>
      </trkpt>
      <trkpt lat="47.70146" lon="-0.97145">
        <ele>67</ele>
        <time>2021-05-04T15:20:41Z</time>
      </trkpt>
      <trkpt lat="47.70166" lon="-0.97325">
        <ele>72</ele>
        <time>2021-05-04T15:21:10Z</time>
      </trkpt>
      <trkpt lat="47.70176" lon="-0.97395">
        <ele>72</ele>
        <time>2021-05-04T15:21:21Z</time>
      </trkpt>
      <trkpt lat="47.70197" lon="-0.97481">
        <ele>71</ele>
        <time>2021-05-04T15:21:35Z</time>
      </trkpt>
      <trkpt lat="47.70208" lon="-0.97505">
        <ele>70</ele>
        <time>2021-05-04T15:21:40Z</time>
      </trkpt>
      <trkpt lat="47.70225" lon="-0.97511">
        <ele>70</ele>
        <time>2021-05-04T15:21:44Z</time>
      </trkpt>
      <trkpt lat="47.70242" lon="-0.97568">
        <ele>68</ele>
        <time>2021-05-04T15:21:54Z</time>
      </trkpt>
      <trkpt lat="47.70267" lon="-0.97628">
        <ele>68</ele>
        <time>2021-05-04T15:22:05Z</time>
      </trkpt>
      <trkpt lat="47.70307" lon="-0.97719">
        <ele>70</ele>
        <time>2021-05-04T15:22:22Z</time>
      </trkpt>
      <trkpt lat="47.70324" lon="-0.97748">
        <ele>70</ele>
        <time>2021-05-04T15:22:28Z</time>
      </trkpt>
      <trkpt lat="47.70347" lon="-0.97813">
        <ele>72</ele>
        <time>2021-05-04T15:22:39Z</time>
      </trkpt>
      <trkpt lat="47.70357" lon="-0.97849">
        <ele>72</ele>
        <time>2021-05-04T15:22:46Z</time>
      </trkpt>
      <trkpt lat="47.70383" lon="-0.97913">
        <ele>72</ele>
        <time>2021-05-04T15:22:57Z</time>
      </trkpt>
      <trkpt lat="47.70408" lon="-0.97966">
        <ele>72</ele>
        <time>2021-05-04T15:23:07Z</time>
      </trkpt>
      <trkpt lat="47.70425" lon="-0.97995">
        <ele>73</ele>
        <time>2021-05-04T15:23:13Z</time>
      </trkpt>
      <trkpt lat="47.7046" lon="-0.98023">
        <ele>77</ele>
        <time>2021-05-04T15:23:23Z</time>
      </trkpt>
      <trkpt lat="47.7048" lon="-0.98033">
        <ele>79</ele>
        <time>2021-05-04T15:23:28Z</time>
      </trkpt>
      <trkpt lat="47.70506" lon="-0.98065">
        <ele>81</ele>
        <time>2021-05-04T15:23:36Z</time>
      </trkpt>
      <trkpt lat="47.70525" lon="-0.98082">
        <ele>82</ele>
        <time>2021-05-04T15:23:41Z</time>
      </trkpt>
      <trkpt lat="47.70577" lon="-0.98114">
        <ele>85</ele>
        <time>2021-05-04T15:23:54Z</time>
      </trkpt>
      <trkpt lat="47.70591" lon="-0.98119">
        <ele>86</ele>
        <time>2021-05-04T15:23:57Z</time>
      </trkpt>
      <trkpt lat="47.70604" lon="-0.98143">
        <ele>85</ele>
        <time>2021-05-04T15:24:02Z</time>
      </trkpt>
      <trkpt lat="47.70605" lon="-0.98183">
        <ele>83</ele>
        <time>2021-05-04T15:24:08Z</time>
      </trkpt>
      <trkpt lat="47.70602" lon="-0.98224">
        <ele>81</ele>
        <time>2021-05-04T15:24:15Z</time>
      </trkpt>
      <trkpt lat="47.70591" lon="-0.98297">
        <ele>80</ele>
        <time>2021-05-04T15:24:27Z</time>
      </trkpt>
      <trkpt lat="47.70591" lon="-0.98329">
        <ele>80</ele>
        <time>2021-05-04T15:24:32Z</time>
      </trkpt>
      <trkpt lat="47.7063" lon="-0.98355">
        <ele>83</ele>
        <time>2021-05-04T15:24:42Z</time>
      </trkpt>
      <trkpt lat="47.70666" lon="-0.98355">
        <ele>85</ele>
        <time>2021-05-04T15:24:50Z</time>
      </trkpt>
      <trkpt lat="47.70696" lon="-0.98337">
        <ele>87</ele>
        <time>2021-05-04T15:24:58Z</time>
      </trkpt>
      <trkpt lat="47.7071" lon="-0.98317">
        <ele>89</ele>
        <time>2021-05-04T15:25:02Z</time>
      </trkpt>
      <trkpt lat="47.70734" lon="-0.98257">
        <ele>91</ele>
        <time>2021-05-04T15:25:13Z</time>
      </trkpt>
      <trkpt lat="47.70748" lon="-0.98232">
        <ele>93</ele>
        <time>2021-05-04T15:25:18Z</time>
      </trkpt>
      <trkpt lat="47.70762" lon="-0.98217">
        <ele>95</ele>
        <time>2021-05-04T15:25:22Z</time>
      </trkpt>
      <trkpt lat="47.70769" lon="-0.98235">
        <ele>94</ele>
        <time>2021-05-04T15:25:26Z</time>
      </trkpt>
      <trkpt lat="47.70773" lon="-0.98258">
        <ele>94</ele>
        <time>2021-05-04T15:25:29Z</time>
      </trkpt>
      <trkpt lat="47.70774" lon="-0.98283">
        <ele>94</ele>
        <time>2021-05-04T15:25:33Z</time>
      </trkpt>
      <trkpt lat="47.70774" lon="-0.98347">
        <ele>92</ele>
        <time>2021-05-04T15:25:43Z</time>
      </trkpt>
      <trkpt lat="47.70777" lon="-0.98382">
        <ele>92</ele>
        <time>2021-05-04T15:25:49Z</time>
      </trkpt>
      <trkpt lat="47.70775" lon="-0.98428">
        <ele>92</ele>
        <time>2021-05-04T15:25:56Z</time>
      </trkpt>
      <trkpt lat="47.70778" lon="-0.98463">
        <ele>92</ele>
        <time>2021-05-04T15:26:02Z</time>
      </trkpt>
      <trkpt lat="47.70794" lon="-0.98571">
        <ele>92</ele>
        <time>2021-05-04T15:26:19Z</time>
      </trkpt>
      <trkpt lat="47.70854" lon="-0.99038">
        <ele>91</ele>
        <time>2021-05-04T15:27:34Z</time>
      </trkpt>
      <trkpt lat="47.70873" lon="-0.99245">
        <ele>89</ele>
        <time>2021-05-04T15:28:07Z</time>
      </trkpt>
      <trkpt lat="47.70867" lon="-0.99277">
        <ele>88</ele>
        <time>2021-05-04T15:28:12Z</time>
      </trkpt>
      <trkpt lat="47.70872" lon="-0.99312">
        <ele>87</ele>
        <time>2021-05-04T15:28:17Z</time>
      </trkpt>
      <trkpt lat="47.70904" lon="-0.9939">
        <ele>87</ele>
        <time>2021-05-04T15:28:32Z</time>
      </trkpt>
      <trkpt lat="47.70937" lon="-0.99484">
        <ele>86</ele>
        <time>2021-05-04T15:28:48Z</time>
      </trkpt>
      <trkpt lat="47.70965" lon="-0.99553">
        <ele>87</ele>
        <time>2021-05-04T15:29:01Z</time>
      </trkpt>
      <trkpt lat="47.70957" lon="-0.99572">
        <ele>86</ele>
        <time>2021-05-04T15:29:05Z</time>
      </trkpt>
      <trkpt lat="47.70953" lon="-0.99591">
        <ele>85</ele>
        <time>2021-05-04T15:29:08Z</time>
      </trkpt>
      <trkpt lat="47.7098" lon="-0.99668">
        <ele>86</ele>
        <time>2021-05-04T15:29:21Z</time>
      </trkpt>
      <trkpt lat="47.71014" lon="-0.99748">
        <ele>89</ele>
        <time>2021-05-04T15:29:36Z</time>
      </trkpt>
      <trkpt lat="47.71096" lon="-0.9998">
        <ele>90</ele>
        <time>2021-05-04T15:30:17Z</time>
      </trkpt>
      <trkpt lat="47.7112" lon="-1.00037">
        <ele>92</ele>
        <time>2021-05-04T15:30:28Z</time>
      </trkpt>
      <trkpt lat="47.71131" lon="-1.00078">
        <ele>92</ele>
        <time>2021-05-04T15:30:35Z</time>
      </trkpt>
      <trkpt lat="47.71151" lon="-1.00176">
        <ele>92</ele>
        <time>2021-05-04T15:30:51Z</time>
      </trkpt>
      <trkpt lat="47.71168" lon="-1.00298">
        <ele>91</ele>
        <time>2021-05-04T15:31:11Z</time>
      </trkpt>
      <trkpt lat="47.71184" lon="-1.00334">
        <ele>90</ele>
        <time>2021-05-04T15:31:17Z</time>
      </trkpt>
      <trkpt lat="47.71206" lon="-1.00371">
        <ele>91</ele>
        <time>2021-05-04T15:31:25Z</time>
      </trkpt>
      <trkpt lat="47.71222" lon="-1.0039">
        <ele>92</ele>
        <time>2021-05-04T15:31:30Z</time>
      </trkpt>
      <trkpt lat="47.71247" lon="-1.0043">
        <ele>93</ele>
        <time>2021-05-04T15:31:38Z</time>
      </trkpt>
      <trkpt lat="47.71281" lon="-1.00491">
        <ele>94</ele>
        <time>2021-05-04T15:31:51Z</time>
      </trkpt>
      <trkpt lat="47.71294" lon="-1.00528">
        <ele>94</ele>
        <time>2021-05-04T15:31:57Z</time>
      </trkpt>
      <trkpt lat="47.71326" lon="-1.00601">
        <ele>95</ele>
        <time>2021-05-04T15:32:11Z</time>
      </trkpt>
      <trkpt lat="47.71346" lon="-1.00632">
        <ele>95</ele>
        <time>2021-05-04T15:32:18Z</time>
      </trkpt>
      <trkpt lat="47.71379" lon="-1.007">
        <ele>97</ele>
        <time>2021-05-04T15:32:31Z</time>
      </trkpt>
      <trkpt lat="47.71388" lon="-1.00699">
        <ele>97</ele>
        <time>2021-05-04T15:32:33Z</time>
      </trkpt>
      <trkpt lat="47.71416" lon="-1.00682">
        <ele>101</ele>
        <time>2021-05-04T15:32:40Z</time>
      </trkpt>
      <trkpt lat="47.71422" lon="-1.00621">
        <ele>101</ele>
        <time>2021-05-04T15:32:50Z</time>
      </trkpt>
      <trkpt lat="47.71507" lon="-1.00572">
        <ele>103</ele>
        <time>2021-05-04T15:33:11Z</time>
      </trkpt>
      <trkpt lat="47.71563" lon="-1.00549">
        <ele>105</ele>
        <time>2021-05-04T15:33:25Z</time>
      </trkpt>
      <trkpt lat="47.71604" lon="-1.00523">
        <ele>107</ele>
        <time>2021-05-04T15:33:35Z</time>
      </trkpt>
      <trkpt lat="47.71623" lon="-1.00505">
        <ele>108</ele>
        <time>2021-05-04T15:33:40Z</time>
      </trkpt>
      <trkpt lat="47.71653" lon="-1.00508">
        <ele>110</ele>
        <time>2021-05-04T15:33:47Z</time>
      </trkpt>
      <trkpt lat="47.71646" lon="-1.0059">
        <ele>111</ele>
        <time>2021-05-04T15:34:00Z</time>
      </trkpt>
      <trkpt lat="47.71632" lon="-1.00682">
        <ele>110</ele>
        <time>2021-05-04T15:34:15Z</time>
      </trkpt>
      <trkpt lat="47.71621" lon="-1.00749">
        <ele>109</ele>
        <time>2021-05-04T15:34:26Z</time>
      </trkpt>
      <trkpt lat="47.71592" lon="-1.00891">
        <ele>109</ele>
        <time>2021-05-04T15:34:49Z</time>
      </trkpt>
      <trkpt lat="47.71589" lon="-1.00928">
        <ele>109</ele>
        <time>2021-05-04T15:34:55Z</time>
      </trkpt>
      <trkpt lat="47.716" lon="-1.00967">
        <ele>109</ele>
        <time>2021-05-04T15:35:02Z</time>
      </trkpt>
      <trkpt lat="47.71609" lon="-1.00988">
        <ele>109</ele>
        <time>2021-05-04T15:35:06Z</time>
      </trkpt>
      <trkpt lat="47.71622" lon="-1.01059">
        <ele>110</ele>
        <time>2021-05-04T15:35:17Z</time>
      </trkpt>
      <trkpt lat="47.71632" lon="-1.01091">
        <ele>111</ele>
        <time>2021-05-04T15:35:23Z</time>
      </trkpt>
      <trkpt lat="47.71638" lon="-1.01142">
        <ele>111</ele>
        <time>2021-05-04T15:35:31Z</time>
      </trkpt>
      <trkpt lat="47.71657" lon="-1.01138">
        <ele>112</ele>
        <time>2021-05-04T15:35:36Z</time>
      </trkpt>
      <trkpt lat="47.71674" lon="-1.01168">
        <ele>113</ele>
        <time>2021-05-04T15:35:42Z</time>
      </trkpt>
      <trkpt lat="47.71699" lon="-1.01244">
        <ele>113</ele>
        <time>2021-05-04T15:35:55Z</time>
      </trkpt>
      <trkpt lat="47.71739" lon="-1.01418">
        <ele>111</ele>
        <time>2021-05-04T15:36:24Z</time>
      </trkpt>
      <trkpt lat="47.71766" lon="-1.01507">
        <ele>111</ele>
        <time>2021-05-04T15:36:39Z</time>
      </trkpt>
      <trkpt lat="47.71773" lon="-1.01553">
        <ele>112</ele>
        <time>2021-05-04T15:36:47Z</time>
      </trkpt>
      <trkpt lat="47.71806" lon="-1.0168">
        <ele>112</ele>
        <time>2021-05-04T15:37:08Z</time>
      </trkpt>
      <trkpt lat="47.71777" lon="-1.01744">
        <ele>108</ele>
        <time>2021-05-04T15:37:20Z</time>
      </trkpt>
      <trkpt lat="47.71773" lon="-1.0178">
        <ele>107</ele>
        <time>2021-05-04T15:37:26Z</time>
      </trkpt>
      <trkpt lat="47.7177" lon="-1.01875">
        <ele>105</ele>
        <time>2021-05-04T15:37:41Z</time>
      </trkpt>
      <trkpt lat="47.71777" lon="-1.01922">
        <ele>104</ele>
        <time>2021-05-04T15:37:48Z</time>
      </trkpt>
      <trkpt lat="47.71809" lon="-1.02005">
        <ele>106</ele>
        <time>2021-05-04T15:38:03Z</time>
      </trkpt>
      <trkpt lat="47.71855" lon="-1.0217">
        <ele>106</ele>
        <time>2021-05-04T15:38:32Z</time>
      </trkpt>
      <trkpt lat="47.71861" lon="-1.02204">
        <ele>106</ele>
        <time>2021-05-04T15:38:37Z</time>
      </trkpt>
      <trkpt lat="47.71872" lon="-1.02246">
        <ele>106</ele>
        <time>2021-05-04T15:38:44Z</time>
      </trkpt>
      <trkpt lat="47.71889" lon="-1.02276">
        <ele>107</ele>
        <time>2021-05-04T15:38:50Z</time>
      </trkpt>
      <trkpt lat="47.71933" lon="-1.024">
        <ele>106</ele>
        <time>2021-05-04T15:39:12Z</time>
      </trkpt>
      <trkpt lat="47.71954" lon="-1.02436">
        <ele>106</ele>
        <time>2021-05-04T15:39:20Z</time>
      </trkpt>
      <trkpt lat="47.71967" lon="-1.02479">
        <ele>106</ele>
        <time>2021-05-04T15:39:27Z</time>
      </trkpt>
      <trkpt lat="47.71994" lon="-1.02552">
        <ele>105</ele>
        <time>2021-05-04T15:39:40Z</time>
      </trkpt>
      <trkpt lat="47.72023" lon="-1.02618">
        <ele>104</ele>
        <time>2021-05-04T15:39:53Z</time>
      </trkpt>
      <trkpt lat="47.72032" lon="-1.02649">
        <ele>103</ele>
        <time>2021-05-04T15:39:58Z</time>
      </trkpt>
      <trkpt lat="47.72085" lon="-1.02754">
        <ele>105</ele>
        <time>2021-05-04T15:40:19Z</time>
      </trkpt>
      <trkpt lat="47.72099" lon="-1.02779">
        <ele>105</ele>
        <time>2021-05-04T15:40:24Z</time>
      </trkpt>
      <trkpt lat="47.72121" lon="-1.0281">
        <ele>105</ele>
        <time>2021-05-04T15:40:31Z</time>
      </trkpt>
      <trkpt lat="47.72137" lon="-1.02845">
        <ele>105</ele>
        <time>2021-05-04T15:40:37Z</time>
      </trkpt>
      <trkpt lat="47.72163" lon="-1.02893">
        <ele>105</ele>
        <time>2021-05-04T15:40:47Z</time>
      </trkpt>
      <trkpt lat="47.72171" lon="-1.02917">
        <ele>105</ele>
        <time>2021-05-04T15:40:51Z</time>
      </trkpt>
      <trkpt lat="47.72172" lon="-1.02967">
        <ele>104</ele>
        <time>2021-05-04T15:40:59Z</time>
      </trkpt>
      <trkpt lat="47.72199" lon="-1.03054">
        <ele>104</ele>
        <time>2021-05-04T15:41:14Z</time>
      </trkpt>
      <trkpt lat="47.72224" lon="-1.03123">
        <ele>105</ele>
        <time>2021-05-04T15:41:27Z</time>
      </trkpt>
      <trkpt lat="47.7224" lon="-1.0318">
        <ele>106</ele>
        <time>2021-05-04T15:41:36Z</time>
      </trkpt>
      <trkpt lat="47.72246" lon="-1.03216">
        <ele>106</ele>
        <time>2021-05-04T15:41:42Z</time>
      </trkpt>
      <trkpt lat="47.72248" lon="-1.0325">
        <ele>106</ele>
        <time>2021-05-04T15:41:47Z</time>
      </trkpt>
      <trkpt lat="47.72234" lon="-1.03281">
        <ele>105</ele>
        <time>2021-05-04T15:41:53Z</time>
      </trkpt>
      <trkpt lat="47.72236" lon="-1.03318">
        <ele>105</ele>
        <time>2021-05-04T15:41:59Z</time>
      </trkpt>
      <trkpt lat="47.72259" lon="-1.03413">
        <ele>106</ele>
        <time>2021-05-04T15:42:15Z</time>
      </trkpt>
      <trkpt lat="47.72261" lon="-1.03441">
        <ele>106</ele>
        <time>2021-05-04T15:42:19Z</time>
      </trkpt>
      <trkpt lat="47.72274" lon="-1.03484">
        <ele>107</ele>
        <time>2021-05-04T15:42:27Z</time>
      </trkpt>
      <trkpt lat="47.72283" lon="-1.03534">
        <ele>107</ele>
        <time>2021-05-04T15:42:35Z</time>
      </trkpt>
      <trkpt lat="47.72317" lon="-1.03589">
        <ele>108</ele>
        <time>2021-05-04T15:42:47Z</time>
      </trkpt>
      <trkpt lat="47.72321" lon="-1.03622">
        <ele>108</ele>
        <time>2021-05-04T15:42:52Z</time>
      </trkpt>
      <trkpt lat="47.72319" lon="-1.0371">
        <ele>107</ele>
        <time>2021-05-04T15:43:06Z</time>
      </trkpt>
      <trkpt lat="47.72315" lon="-1.03741">
        <ele>107</ele>
        <time>2021-05-04T15:43:11Z</time>
      </trkpt>
      <trkpt lat="47.72317" lon="-1.03837">
        <ele>108</ele>
        <time>2021-05-04T15:43:26Z</time>
      </trkpt>
      <trkpt lat="47.72326" lon="-1.03894">
        <ele>108</ele>
        <time>2021-05-04T15:43:35Z</time>
      </trkpt>
      <trkpt lat="47.72342" lon="-1.03936">
        <ele>109</ele>
        <time>2021-05-04T15:43:43Z</time>
      </trkpt>
      <trkpt lat="47.7235" lon="-1.03969">
        <ele>109</ele>
        <time>2021-05-04T15:43:48Z</time>
      </trkpt>
      <trkpt lat="47.72347" lon="-1.04009">
        <ele>108</ele>
        <time>2021-05-04T15:43:54Z</time>
      </trkpt>
      <trkpt lat="47.72338" lon="-1.04049">
        <ele>109</ele>
        <time>2021-05-04T15:44:01Z</time>
      </trkpt>
      <trkpt lat="47.72349" lon="-1.04114">
        <ele>110</ele>
        <time>2021-05-04T15:44:12Z</time>
      </trkpt>
      <trkpt lat="47.72327" lon="-1.04193">
        <ele>110</ele>
        <time>2021-05-04T15:44:25Z</time>
      </trkpt>
      <trkpt lat="47.7233" lon="-1.04239">
        <ele>111</ele>
        <time>2021-05-04T15:44:32Z</time>
      </trkpt>
      <trkpt lat="47.72325" lon="-1.04272">
        <ele>110</ele>
        <time>2021-05-04T15:44:38Z</time>
      </trkpt>
      <trkpt lat="47.72326" lon="-1.04306">
        <ele>110</ele>
        <time>2021-05-04T15:44:43Z</time>
      </trkpt>
      <trkpt lat="47.72324" lon="-1.04334">
        <ele>109</ele>
        <time>2021-05-04T15:44:47Z</time>
      </trkpt>
      <trkpt lat="47.7233" lon="-1.04367">
        <ele>110</ele>
        <time>2021-05-04T15:44:53Z</time>
      </trkpt>
      <trkpt lat="47.72345" lon="-1.04396">
        <ele>110</ele>
        <time>2021-05-04T15:44:58Z</time>
      </trkpt>
      <trkpt lat="47.72374" lon="-1.04397">
        <ele>110</ele>
        <time>2021-05-04T15:45:05Z</time>
      </trkpt>
      <trkpt lat="47.72409" lon="-1.04368">
        <ele>111</ele>
        <time>2021-05-04T15:45:15Z</time>
      </trkpt>
      <trkpt lat="47.72472" lon="-1.04303">
        <ele>109</ele>
        <time>2021-05-04T15:45:33Z</time>
      </trkpt>
      <trkpt lat="47.7252" lon="-1.04268">
        <ele>109</ele>
        <time>2021-05-04T15:45:45Z</time>
      </trkpt>
      <trkpt lat="47.72574" lon="-1.0422">
        <ele>108</ele>
        <time>2021-05-04T15:46:00Z</time>
      </trkpt>
      <trkpt lat="47.72614" lon="-1.0418">
        <ele>105</ele>
        <time>2021-05-04T15:46:11Z</time>
      </trkpt>
      <trkpt lat="47.72637" lon="-1.04162">
        <ele>104</ele>
        <time>2021-05-04T15:46:17Z</time>
      </trkpt>
      <trkpt lat="47.72654" lon="-1.04144">
        <ele>102</ele>
        <time>2021-05-04T15:46:22Z</time>
      </trkpt>
      <trkpt lat="47.72695" lon="-1.04108">
        <ele>101</ele>
        <time>2021-05-04T15:46:33Z</time>
      </trkpt>
      <trkpt lat="47.72708" lon="-1.0409">
        <ele>101</ele>
        <time>2021-05-04T15:46:37Z</time>
      </trkpt>
      <trkpt lat="47.72722" lon="-1.04082">
        <ele>101</ele>
        <time>2021-05-04T15:46:41Z</time>
      </trkpt>
      <trkpt lat="47.72756" lon="-1.04054">
        <ele>100</ele>
        <time>2021-05-04T15:46:50Z</time>
      </trkpt>
      <trkpt lat="47.72788" lon="-1.04034">
        <ele>99</ele>
        <time>2021-05-04T15:46:58Z</time>
      </trkpt>
      <trkpt lat="47.72819" lon="-1.04011">
        <ele>98</ele>
        <time>2021-05-04T15:47:06Z</time>
      </trkpt>
      <trkpt lat="47.72835" lon="-1.03996">
        <ele>98</ele>
        <time>2021-05-04T15:47:10Z</time>
      </trkpt>
      <trkpt lat="47.72863" lon="-1.03963">
        <ele>96</ele>
        <time>2021-05-04T15:47:19Z</time>
      </trkpt>
      <trkpt lat="47.72991" lon="-1.03848">
        <ele>94</ele>
        <time>2021-05-04T15:47:54Z</time>
      </trkpt>
      <trkpt lat="47.73022" lon="-1.03822">
        <ele>94</ele>
        <time>2021-05-04T15:48:02Z</time>
      </trkpt>
      <trkpt lat="47.7308" lon="-1.03783">
        <ele>93</ele>
        <time>2021-05-04T15:48:17Z</time>
      </trkpt>
      <trkpt lat="47.7312" lon="-1.03741">
        <ele>95</ele>
        <time>2021-05-04T15:48:28Z</time>
      </trkpt>
      <trkpt lat="47.73138" lon="-1.03716">
        <ele>96</ele>
        <time>2021-05-04T15:48:34Z</time>
      </trkpt>
      <trkpt lat="47.73153" lon="-1.03701">
        <ele>96</ele>
        <time>2021-05-04T15:48:38Z</time>
      </trkpt>
      <trkpt lat="47.73176" lon="-1.03672">
        <ele>97</ele>
        <time>2021-05-04T15:48:45Z</time>
      </trkpt>
      <trkpt lat="47.73196" lon="-1.03653">
        <ele>97</ele>
        <time>2021-05-04T15:48:51Z</time>
      </trkpt>
      <trkpt lat="47.73239" lon="-1.03597">
        <ele>97</ele>
        <time>2021-05-04T15:49:04Z</time>
      </trkpt>
      <trkpt lat="47.7328" lon="-1.03557">
        <ele>98</ele>
        <time>2021-05-04T15:49:16Z</time>
      </trkpt>
      <trkpt lat="47.73341" lon="-1.0351">
        <ele>99</ele>
        <time>2021-05-04T15:49:32Z</time>
      </trkpt>
      <trkpt lat="47.73385" lon="-1.03471">
        <ele>100</ele>
        <time>2021-05-04T15:49:44Z</time>
      </trkpt>
      <trkpt lat="47.73438" lon="-1.03416">
        <ele>99</ele>
        <time>2021-05-04T15:49:59Z</time>
      </trkpt>
      <trkpt lat="47.73463" lon="-1.03398">
        <ele>99</ele>
        <time>2021-05-04T15:50:05Z</time>
      </trkpt>
      <trkpt lat="47.73486" lon="-1.03373">
        <ele>100</ele>
        <time>2021-05-04T15:50:12Z</time>
      </trkpt>
      <trkpt lat="47.73528" lon="-1.03343">
        <ele>102</ele>
        <time>2021-05-04T15:50:23Z</time>
      </trkpt>
      <trkpt lat="47.73572" lon="-1.03319">
        <ele>104</ele>
        <time>2021-05-04T15:50:34Z</time>
      </trkpt>
      <trkpt lat="47.73603" lon="-1.03283">
        <ele>104</ele>
        <time>2021-05-04T15:50:43Z</time>
      </trkpt>
      <trkpt lat="47.73656" lon="-1.03243">
        <ele>106</ele>
        <time>2021-05-04T15:50:57Z</time>
      </trkpt>
      <trkpt lat="47.73675" lon="-1.0321">
        <ele>106</ele>
        <time>2021-05-04T15:51:04Z</time>
      </trkpt>
      <trkpt lat="47.73702" lon="-1.0318">
        <ele>106</ele>
        <time>2021-05-04T15:51:11Z</time>
      </trkpt>
      <trkpt lat="47.73758" lon="-1.03124">
        <ele>108</ele>
        <time>2021-05-04T15:51:27Z</time>
      </trkpt>
      <trkpt lat="47.73775" lon="-1.03112">
        <ele>108</ele>
        <time>2021-05-04T15:51:32Z</time>
      </trkpt>
      <trkpt lat="47.73792" lon="-1.03088">
        <ele>108</ele>
        <time>2021-05-04T15:51:37Z</time>
      </trkpt>
      <trkpt lat="47.73803" lon="-1.03051">
        <ele>108</ele>
        <time>2021-05-04T15:51:43Z</time>
      </trkpt>
      <trkpt lat="47.73809" lon="-1.03004">
        <ele>108</ele>
        <time>2021-05-04T15:51:51Z</time>
      </trkpt>
      <trkpt lat="47.73806" lon="-1.02968">
        <ele>108</ele>
        <time>2021-05-04T15:51:57Z</time>
      </trkpt>
      <trkpt lat="47.73793" lon="-1.02936">
        <ele>108</ele>
        <time>2021-05-04T15:52:03Z</time>
      </trkpt>
      <trkpt lat="47.73775" lon="-1.02928">
        <ele>108</ele>
        <time>2021-05-04T15:52:07Z</time>
      </trkpt>
      <trkpt lat="47.73755" lon="-1.02929">
        <ele>108</ele>
        <time>2021-05-04T15:52:12Z</time>
      </trkpt>
      <trkpt lat="47.73741" lon="-1.02926">
        <ele>108</ele>
        <time>2021-05-04T15:52:15Z</time>
      </trkpt>
      <trkpt lat="47.73703" lon="-1.02902">
        <ele>105</ele>
        <time>2021-05-04T15:52:25Z</time>
      </trkpt>
      <trkpt lat="47.73687" lon="-1.02884">
        <ele>104</ele>
        <time>2021-05-04T15:52:29Z</time>
      </trkpt>
      <trkpt lat="47.73651" lon="-1.02887">
        <ele>103</ele>
        <time>2021-05-04T15:52:38Z</time>
      </trkpt>
      <trkpt lat="47.73619" lon="-1.02897">
        <ele>103</ele>
        <time>2021-05-04T15:52:45Z</time>
      </trkpt>
      <trkpt lat="47.73604" lon="-1.02905">
        <ele>104</ele>
        <time>2021-05-04T15:52:49Z</time>
      </trkpt>
      <trkpt lat="47.73599" lon="-1.02912">
        <ele>104</ele>
        <time>2021-05-04T15:52:51Z</time>
      </trkpt>
      <trkpt lat="47.73572" lon="-1.02928">
        <ele>103</ele>
        <time>2021-05-04T15:52:57Z</time>
      </trkpt>
      <trkpt lat="47.73536" lon="-1.02927">
        <ele>102</ele>
        <time>2021-05-04T15:53:06Z</time>
      </trkpt>
      <trkpt lat="47.73499" lon="-1.02934">
        <ele>101</ele>
        <time>2021-05-04T15:53:14Z</time>
      </trkpt>
      <trkpt lat="47.73474" lon="-1.02943">
        <ele>100</ele>
        <time>2021-05-04T15:53:21Z</time>
      </trkpt>
      <trkpt lat="47.7345" lon="-1.02947">
        <ele>100</ele>
        <time>2021-05-04T15:53:26Z</time>
      </trkpt>
      <trkpt lat="47.73403" lon="-1.02944">
        <ele>98</ele>
        <time>2021-05-04T15:53:37Z</time>
      </trkpt>
      <trkpt lat="47.73359" lon="-1.02945">
        <ele>95</ele>
        <time>2021-05-04T15:53:47Z</time>
      </trkpt>
      <trkpt lat="47.73331" lon="-1.02955">
        <ele>94</ele>
        <time>2021-05-04T15:53:54Z</time>
      </trkpt>
      <trkpt lat="47.73307" lon="-1.02947">
        <ele>93</ele>
        <time>2021-05-04T15:54:00Z</time>
      </trkpt>
      <trkpt lat="47.73286" lon="-1.02934">
        <ele>92</ele>
        <time>2021-05-04T15:54:05Z</time>
      </trkpt>
      <trkpt lat="47.73229" lon="-1.02929">
        <ele>92</ele>
        <time>2021-05-04T15:54:19Z</time>
      </trkpt>
      <trkpt lat="47.732" lon="-1.02919">
        <ele>92</ele>
        <time>2021-05-04T15:54:25Z</time>
      </trkpt>
      <trkpt lat="47.73167" lon="-1.02903">
        <ele>92</ele>
        <time>2021-05-04T15:54:34Z</time>
      </trkpt>
      <trkpt lat="47.73101" lon="-1.02865">
        <ele>92</ele>
        <time>2021-05-04T15:54:50Z</time>
      </trkpt>
      <trkpt lat="47.73073" lon="-1.02856">
        <ele>93</ele>
        <time>2021-05-04T15:54:57Z</time>
      </trkpt>
      <trkpt lat="47.73041" lon="-1.02838">
        <ele>94</ele>
        <time>2021-05-04T15:55:05Z</time>
      </trkpt>
      <trkpt lat="47.73033" lon="-1.02781">
        <ele>93</ele>
        <time>2021-05-04T15:55:14Z</time>
      </trkpt>
      <trkpt lat="47.73023" lon="-1.02744">
        <ele>93</ele>
        <time>2021-05-04T15:55:20Z</time>
      </trkpt>
      <trkpt lat="47.73023" lon="-1.02712">
        <ele>93</ele>
        <time>2021-05-04T15:55:25Z</time>
      </trkpt>
      <trkpt lat="47.7302" lon="-1.02684">
        <ele>93</ele>
        <time>2021-05-04T15:55:30Z</time>
      </trkpt>
      <trkpt lat="47.7302" lon="-1.02623">
        <ele>92</ele>
        <time>2021-05-04T15:55:39Z</time>
      </trkpt>
      <trkpt lat="47.73023" lon="-1.02589">
        <ele>92</ele>
        <time>2021-05-04T15:55:45Z</time>
      </trkpt>
      <trkpt lat="47.73022" lon="-1.02542">
        <ele>92</ele>
        <time>2021-05-04T15:55:52Z</time>
      </trkpt>
      <trkpt lat="47.73017" lon="-1.02507">
        <ele>92</ele>
        <time>2021-05-04T15:55:58Z</time>
      </trkpt>
      <trkpt lat="47.73006" lon="-1.02472">
        <ele>90</ele>
        <time>2021-05-04T15:56:04Z</time>
      </trkpt>
      <trkpt lat="47.72958" lon="-1.02361">
        <ele>89</ele>
        <time>2021-05-04T15:56:24Z</time>
      </trkpt>
      <trkpt lat="47.72925" lon="-1.02304">
        <ele>91</ele>
        <time>2021-05-04T15:56:36Z</time>
      </trkpt>
      <trkpt lat="47.72912" lon="-1.02271">
        <ele>90</ele>
        <time>2021-05-04T15:56:42Z</time>
      </trkpt>
      <trkpt lat="47.72896" lon="-1.02215">
        <ele>89</ele>
        <time>2021-05-04T15:56:52Z</time>
      </trkpt>
      <trkpt lat="47.72891" lon="-1.02189">
        <ele>88</ele>
        <time>2021-05-04T15:56:56Z</time>
      </trkpt>
      <trkpt lat="47.72886" lon="-1.02139">
        <ele>88</ele>
        <time>2021-05-04T15:57:04Z</time>
      </trkpt>
      <trkpt lat="47.72877" lon="-1.02113">
        <ele>88</ele>
        <time>2021-05-04T15:57:09Z</time>
      </trkpt>
      <trkpt lat="47.72878" lon="-1.02083">
        <ele>88</ele>
        <time>2021-05-04T15:57:13Z</time>
      </trkpt>
      <trkpt lat="47.7287" lon="-1.02044">
        <ele>88</ele>
        <time>2021-05-04T15:57:20Z</time>
      </trkpt>
      <trkpt lat="47.72867" lon="-1.01988">
        <ele>87</ele>
        <time>2021-05-04T15:57:29Z</time>
      </trkpt>
      <trkpt lat="47.72867" lon="-1.01954">
        <ele>87</ele>
        <time>2021-05-04T15:57:34Z</time>
      </trkpt>
      <trkpt lat="47.72879" lon="-1.0188">
        <ele>86</ele>
        <time>2021-05-04T15:57:46Z</time>
      </trkpt>
      <trkpt lat="47.72873" lon="-1.01819">
        <ele>86</ele>
        <time>2021-05-04T15:57:56Z</time>
      </trkpt>
      <trkpt lat="47.72866" lon="-1.0179">
        <ele>86</ele>
        <time>2021-05-04T15:58:00Z</time>
      </trkpt>
      <trkpt lat="47.72845" lon="-1.01735">
        <ele>87</ele>
        <time>2021-05-04T15:58:10Z</time>
      </trkpt>
      <trkpt lat="47.72832" lon="-1.01706">
        <ele>89</ele>
        <time>2021-05-04T15:58:16Z</time>
      </trkpt>
      <trkpt lat="47.7281" lon="-1.01669">
        <ele>90</ele>
        <time>2021-05-04T15:58:24Z</time>
      </trkpt>
      <trkpt lat="47.72772" lon="-1.01583">
        <ele>91</ele>
        <time>2021-05-04T15:58:40Z</time>
      </trkpt>
      <trkpt lat="47.72763" lon="-1.0155">
        <ele>92</ele>
        <time>2021-05-04T15:58:45Z</time>
      </trkpt>
      <trkpt lat="47.72758" lon="-1.01505">
        <ele>93</ele>
        <time>2021-05-04T15:58:52Z</time>
      </trkpt>
      <trkpt lat="47.72757" lon="-1.01469">
        <ele>92</ele>
        <time>2021-05-04T15:58:58Z</time>
      </trkpt>
      <trkpt lat="47.72759" lon="-1.01438">
        <ele>91</ele>
        <time>2021-05-04T15:59:03Z</time>
      </trkpt>
      <trkpt lat="47.72782" lon="-1.01364">
        <ele>89</ele>
        <time>2021-05-04T15:59:16Z</time>
      </trkpt>
      <trkpt lat="47.72787" lon="-1.01333">
        <ele>89</ele>
        <time>2021-05-04T15:59:21Z</time>
      </trkpt>
      <trkpt lat="47.72788" lon="-1.01295">
        <ele>89</ele>
        <time>2021-05-04T15:59:27Z</time>
      </trkpt>
      <trkpt lat="47.72777" lon="-1.01185">
        <ele>87</ele>
        <time>2021-05-04T15:59:44Z</time>
      </trkpt>
      <trkpt lat="47.72762" lon="-1.01146">
        <ele>88</ele>
        <time>2021-05-04T15:59:51Z</time>
      </trkpt>
      <trkpt lat="47.72757" lon="-1.01062">
        <ele>88</ele>
        <time>2021-05-04T16:00:05Z</time>
      </trkpt>
      <trkpt lat="47.72749" lon="-1.01016">
        <ele>87</ele>
        <time>2021-05-04T16:00:12Z</time>
      </trkpt>
      <trkpt lat="47.72733" lon="-1.00976">
        <ele>87</ele>
        <time>2021-05-04T16:00:19Z</time>
      </trkpt>
      <trkpt lat="47.72726" lon="-1.00939">
        <ele>86</ele>
        <time>2021-05-04T16:00:25Z</time>
      </trkpt>
      <trkpt lat="47.72713" lon="-1.00896">
        <ele>86</ele>
        <time>2021-05-04T16:00:33Z</time>
      </trkpt>
      <trkpt lat="47.72699" lon="-1.00835">
        <ele>85</ele>
        <time>2021-05-04T16:00:43Z</time>
      </trkpt>
      <trkpt lat="47.72688" lon="-1.00772">
        <ele>85</ele>
        <time>2021-05-04T16:00:53Z</time>
      </trkpt>
      <trkpt lat="47.72652" lon="-1.00648">
        <ele>83</ele>
        <time>2021-05-04T16:01:14Z</time>
      </trkpt>
      <trkpt lat="47.72624" lon="-1.00594">
        <ele>85</ele>
        <time>2021-05-04T16:01:25Z</time>
      </trkpt>
      <trkpt lat="47.72614" lon="-1.00564">
        <ele>86</ele>
        <time>2021-05-04T16:01:30Z</time>
      </trkpt>
      <trkpt lat="47.72585" lon="-1.00451">
        <ele>88</ele>
        <time>2021-05-04T16:01:49Z</time>
      </trkpt>
      <trkpt lat="47.72546" lon="-1.00326">
        <ele>87</ele>
        <time>2021-05-04T16:02:11Z</time>
      </trkpt>
      <trkpt lat="47.72525" lon="-1.0024">
        <ele>88</ele>
        <time>2021-05-04T16:02:25Z</time>
      </trkpt>
      <trkpt lat="47.72495" lon="-1.00198">
        <ele>88</ele>
        <time>2021-05-04T16:02:35Z</time>
      </trkpt>
      <trkpt lat="47.72473" lon="-1.00204">
        <ele>87</ele>
        <time>2021-05-04T16:02:40Z</time>
      </trkpt>
      <trkpt lat="47.72448" lon="-1.00223">
        <ele>87</ele>
        <time>2021-05-04T16:02:47Z</time>
      </trkpt>
      <trkpt lat="47.72436" lon="-1.00225">
        <ele>87</ele>
        <time>2021-05-04T16:02:50Z</time>
      </trkpt>
      <trkpt lat="47.72402" lon="-1.00214">
        <ele>87</ele>
        <time>2021-05-04T16:02:58Z</time>
      </trkpt>
      <trkpt lat="47.7239" lon="-1.00201">
        <ele>87</ele>
        <time>2021-05-04T16:03:01Z</time>
      </trkpt>
      <trkpt lat="47.72382" lon="-1.00172">
        <ele>87</ele>
        <time>2021-05-04T16:03:06Z</time>
      </trkpt>
      <trkpt lat="47.72384" lon="-1.00122">
        <ele>86</ele>
        <time>2021-05-04T16:03:14Z</time>
      </trkpt>
      <trkpt lat="47.72389" lon="-1.00101">
        <ele>85</ele>
        <time>2021-05-04T16:03:17Z</time>
      </trkpt>
      <trkpt lat="47.72407" lon="-1.00092">
        <ele>84</ele>
        <time>2021-05-04T16:03:22Z</time>
      </trkpt>
      <trkpt lat="47.72427" lon="-1.00067">
        <ele>83</ele>
        <time>2021-05-04T16:03:28Z</time>
      </trkpt>
      <trkpt lat="47.72455" lon="-1.00025">
        <ele>81</ele>
        <time>2021-05-04T16:03:37Z</time>
      </trkpt>
      <trkpt lat="47.72471" lon="-0.99964">
        <ele>80</ele>
        <time>2021-05-04T16:03:48Z</time>
      </trkpt>
      <trkpt lat="47.72487" lon="-0.99882">
        <ele>78</ele>
        <time>2021-05-04T16:04:01Z</time>
      </trkpt>
      <trkpt lat="47.72495" lon="-0.99863">
        <ele>77</ele>
        <time>2021-05-04T16:04:05Z</time>
      </trkpt>
      <trkpt lat="47.72508" lon="-0.99852">
        <ele>76</ele>
        <time>2021-05-04T16:04:08Z</time>
      </trkpt>
      <trkpt lat="47.72523" lon="-0.99829">
        <ele>76</ele>
        <time>2021-05-04T16:04:13Z</time>
      </trkpt>
      <trkpt lat="47.72536" lon="-0.99806">
        <ele>76</ele>
        <time>2021-05-04T16:04:18Z</time>
      </trkpt>
      <trkpt lat="47.72547" lon="-0.99779">
        <ele>77</ele>
        <time>2021-05-04T16:04:23Z</time>
      </trkpt>
      <trkpt lat="47.72591" lon="-0.99645">
        <ele>79</ele>
        <time>2021-05-04T16:04:46Z</time>
      </trkpt>
      <trkpt lat="47.72634" lon="-0.99528">
        <ele>81</ele>
        <time>2021-05-04T16:05:07Z</time>
      </trkpt>
      <trkpt lat="47.72654" lon="-0.99462">
        <ele>82</ele>
        <time>2021-05-04T16:05:18Z</time>
      </trkpt>
      <trkpt lat="47.72664" lon="-0.99408">
        <ele>83</ele>
        <time>2021-05-04T16:05:27Z</time>
      </trkpt>
      <trkpt lat="47.72699" lon="-0.99305">
        <ele>88</ele>
        <time>2021-05-04T16:05:45Z</time>
      </trkpt>
      <trkpt lat="47.72728" lon="-0.99208">
        <ele>90</ele>
        <time>2021-05-04T16:06:02Z</time>
      </trkpt>
      <trkpt lat="47.72739" lon="-0.99179">
        <ele>90</ele>
        <time>2021-05-04T16:06:07Z</time>
      </trkpt>
      <trkpt lat="47.72753" lon="-0.99158">
        <ele>91</ele>
        <time>2021-05-04T16:06:12Z</time>
      </trkpt>
      <trkpt lat="47.72768" lon="-0.99142">
        <ele>92</ele>
        <time>2021-05-04T16:06:16Z</time>
      </trkpt>
      <trkpt lat="47.72795" lon="-0.99075">
        <ele>93</ele>
        <time>2021-05-04T16:06:29Z</time>
      </trkpt>
      <trkpt lat="47.72836" lon="-0.98924">
        <ele>96</ele>
        <time>2021-05-04T16:06:54Z</time>
      </trkpt>
      <trkpt lat="47.72863" lon="-0.98874">
        <ele>97</ele>
        <time>2021-05-04T16:07:04Z</time>
      </trkpt>
      <trkpt lat="47.72877" lon="-0.98832">
        <ele>97</ele>
        <time>2021-05-04T16:07:12Z</time>
      </trkpt>
      <trkpt lat="47.72884" lon="-0.98792">
        <ele>97</ele>
        <time>2021-05-04T16:07:18Z</time>
      </trkpt>
      <trkpt lat="47.72887" lon="-0.98751">
        <ele>97</ele>
        <time>2021-05-04T16:07:24Z</time>
      </trkpt>
      <trkpt lat="47.72886" lon="-0.98718">
        <ele>97</ele>
        <time>2021-05-04T16:07:30Z</time>
      </trkpt>
      <trkpt lat="47.72896" lon="-0.98691">
        <ele>98</ele>
        <time>2021-05-04T16:07:35Z</time>
      </trkpt>
      <trkpt lat="47.73002" lon="-0.98656">
        <ele>101</ele>
        <time>2021-05-04T16:08:00Z</time>
      </trkpt>
      <trkpt lat="47.73067" lon="-0.98626">
        <ele>98</ele>
        <time>2021-05-04T16:08:16Z</time>
      </trkpt>
      <trkpt lat="47.73083" lon="-0.98613">
        <ele>97</ele>
        <time>2021-05-04T16:08:20Z</time>
      </trkpt>
      <trkpt lat="47.73092" lon="-0.98626">
        <ele>97</ele>
        <time>2021-05-04T16:08:23Z</time>
      </trkpt>
      <trkpt lat="47.7311" lon="-0.98683">
        <ele>97</ele>
        <time>2021-05-04T16:08:33Z</time>
      </trkpt>
      <trkpt lat="47.73122" lon="-0.98769">
        <ele>98</ele>
        <time>2021-05-04T16:08:47Z</time>
      </trkpt>
      <trkpt lat="47.73131" lon="-0.98802">
        <ele>97</ele>
        <time>2021-05-04T16:08:52Z</time>
      </trkpt>
      <trkpt lat="47.73149" lon="-0.98834">
        <ele>96</ele>
        <time>2021-05-04T16:08:59Z</time>
      </trkpt>
      <trkpt lat="47.7317" lon="-0.98884">
        <ele>94</ele>
        <time>2021-05-04T16:09:08Z</time>
      </trkpt>
      <trkpt lat="47.7318" lon="-0.98944">
        <ele>93</ele>
        <time>2021-05-04T16:09:18Z</time>
      </trkpt>
      <trkpt lat="47.7318" lon="-0.99013">
        <ele>95</ele>
        <time>2021-05-04T16:09:29Z</time>
      </trkpt>
      <trkpt lat="47.73185" lon="-0.99058">
        <ele>95</ele>
        <time>2021-05-04T16:09:36Z</time>
      </trkpt>
      <trkpt lat="47.73198" lon="-0.99089">
        <ele>95</ele>
        <time>2021-05-04T16:09:42Z</time>
      </trkpt>
      <trkpt lat="47.73213" lon="-0.99111">
        <ele>95</ele>
        <time>2021-05-04T16:09:46Z</time>
      </trkpt>
      <trkpt lat="47.73209" lon="-0.99133">
        <ele>96</ele>
        <time>2021-05-04T16:09:50Z</time>
      </trkpt>
      <trkpt lat="47.73177" lon="-0.9914">
        <ele>98</ele>
        <time>2021-05-04T16:09:58Z</time>
      </trkpt>
      <trkpt lat="47.73135" lon="-0.99153">
        <ele>99</ele>
        <time>2021-05-04T16:10:08Z</time>
      </trkpt>
      <trkpt lat="47.73087" lon="-0.99176">
        <ele>100</ele>
        <time>2021-05-04T16:10:19Z</time>
      </trkpt>
      <trkpt lat="47.72864" lon="-0.99312">
        <ele>93</ele>
        <time>2021-05-04T16:11:16Z</time>
      </trkpt>
      <trkpt lat="47.72736" lon="-0.99385">
        <ele>87</ele>
        <time>2021-05-04T16:11:48Z</time>
      </trkpt>
      <trkpt lat="47.72648" lon="-0.99454">
        <ele>82</ele>
        <time>2021-05-04T16:12:11Z</time>
      </trkpt>
      <trkpt lat="47.72627" lon="-0.99503">
        <ele>81</ele>
        <time>2021-05-04T16:12:20Z</time>
      </trkpt>
      <trkpt lat="47.72573" lon="-0.99675">
        <ele>78</ele>
        <time>2021-05-04T16:12:50Z</time>
      </trkpt>
      <trkpt lat="47.72563" lon="-0.99702">
        <ele>77</ele>
        <time>2021-05-04T16:12:55Z</time>
      </trkpt>
      <trkpt lat="47.72548" lon="-0.99732">
        <ele>77</ele>
        <time>2021-05-04T16:13:01Z</time>
      </trkpt>
      <trkpt lat="47.72539" lon="-0.99763">
        <ele>77</ele>
        <time>2021-05-04T16:13:06Z</time>
      </trkpt>
      <trkpt lat="47.72536" lon="-0.99784">
        <ele>77</ele>
        <time>2021-05-04T16:13:09Z</time>
      </trkpt>
      <trkpt lat="47.72527" lon="-0.99808">
        <ele>76</ele>
        <time>2021-05-04T16:13:14Z</time>
      </trkpt>
      <trkpt lat="47.72519" lon="-0.99824">
        <ele>76</ele>
        <time>2021-05-04T16:13:17Z</time>
      </trkpt>
      <trkpt lat="47.72504" lon="-0.99845">
        <ele>76</ele>
        <time>2021-05-04T16:13:21Z</time>
      </trkpt>
      <trkpt lat="47.72492" lon="-0.99854">
        <ele>77</ele>
        <time>2021-05-04T16:13:25Z</time>
      </trkpt>
      <trkpt lat="47.72468" lon="-0.9985">
        <ele>79</ele>
        <time>2021-05-04T16:13:30Z</time>
      </trkpt>
      <trkpt lat="47.7246" lon="-0.99831">
        <ele>79</ele>
        <time>2021-05-04T16:13:34Z</time>
      </trkpt>
      <trkpt lat="47.72446" lon="-0.99814">
        <ele>80</ele>
        <time>2021-05-04T16:13:38Z</time>
      </trkpt>
      <trkpt lat="47.72368" lon="-0.99783">
        <ele>85</ele>
        <time>2021-05-04T16:13:57Z</time>
      </trkpt>
      <trkpt lat="47.72315" lon="-0.99775">
        <ele>88</ele>
        <time>2021-05-04T16:14:09Z</time>
      </trkpt>
      <trkpt lat="47.72297" lon="-0.99764">
        <ele>88</ele>
        <time>2021-05-04T16:14:14Z</time>
      </trkpt>
      <trkpt lat="47.72279" lon="-0.99741">
        <ele>89</ele>
        <time>2021-05-04T16:14:19Z</time>
      </trkpt>
      <trkpt lat="47.72259" lon="-0.99735">
        <ele>89</ele>
        <time>2021-05-04T16:14:24Z</time>
      </trkpt>
      <trkpt lat="47.72232" lon="-0.99748">
        <ele>90</ele>
        <time>2021-05-04T16:14:31Z</time>
      </trkpt>
      <trkpt lat="47.72187" lon="-0.9984">
        <ele>91</ele>
        <time>2021-05-04T16:14:49Z</time>
      </trkpt>
      <trkpt lat="47.72179" lon="-0.9983">
        <ele>92</ele>
        <time>2021-05-04T16:14:51Z</time>
      </trkpt>
      <trkpt lat="47.72127" lon="-0.99709">
        <ele>93</ele>
        <time>2021-05-04T16:15:14Z</time>
      </trkpt>
      <trkpt lat="47.72111" lon="-0.99697">
        <ele>94</ele>
        <time>2021-05-04T16:15:18Z</time>
      </trkpt>
      <trkpt lat="47.72082" lon="-0.99695">
        <ele>96</ele>
        <time>2021-05-04T16:15:25Z</time>
      </trkpt>
      <trkpt lat="47.72033" lon="-0.99718">
        <ele>101</ele>
        <time>2021-05-04T16:15:37Z</time>
      </trkpt>
      <trkpt lat="47.7194" lon="-0.99778">
        <ele>103</ele>
        <time>2021-05-04T16:16:00Z</time>
      </trkpt>
      <trkpt lat="47.71915" lon="-0.99789">
        <ele>103</ele>
        <time>2021-05-04T16:16:06Z</time>
      </trkpt>
      <trkpt lat="47.71895" lon="-0.99794">
        <ele>102</ele>
        <time>2021-05-04T16:16:11Z</time>
      </trkpt>
      <trkpt lat="47.71878" lon="-0.9981">
        <ele>101</ele>
        <time>2021-05-04T16:16:16Z</time>
      </trkpt>
      <trkpt lat="47.71865" lon="-0.99828">
        <ele>101</ele>
        <time>2021-05-04T16:16:20Z</time>
      </trkpt>
      <trkpt lat="47.71849" lon="-0.9984">
        <ele>100</ele>
        <time>2021-05-04T16:16:24Z</time>
      </trkpt>
      <trkpt lat="47.71829" lon="-0.99775">
        <ele>99</ele>
        <time>2021-05-04T16:16:35Z</time>
      </trkpt>
      <trkpt lat="47.71818" lon="-0.99748">
        <ele>99</ele>
        <time>2021-05-04T16:16:40Z</time>
      </trkpt>
      <trkpt lat="47.71756" lon="-0.99487">
        <ele>99</ele>
        <time>2021-05-04T16:17:24Z</time>
      </trkpt>
      <trkpt lat="47.71749" lon="-0.99443">
        <ele>98</ele>
        <time>2021-05-04T16:17:31Z</time>
      </trkpt>
      <trkpt lat="47.71716" lon="-0.99333">
        <ele>97</ele>
        <time>2021-05-04T16:17:50Z</time>
      </trkpt>
      <trkpt lat="47.71688" lon="-0.99218">
        <ele>97</ele>
        <time>2021-05-04T16:18:09Z</time>
      </trkpt>
      <trkpt lat="47.71641" lon="-0.99048">
        <ele>93</ele>
        <time>2021-05-04T16:18:38Z</time>
      </trkpt>
      <trkpt lat="47.71591" lon="-0.98844">
        <ele>91</ele>
        <time>2021-05-04T16:19:12Z</time>
      </trkpt>
      <trkpt lat="47.71573" lon="-0.98783">
        <ele>90</ele>
        <time>2021-05-04T16:19:23Z</time>
      </trkpt>
      <trkpt lat="47.71574" lon="-0.98758">
        <ele>89</ele>
        <time>2021-05-04T16:19:26Z</time>
      </trkpt>
      <trkpt lat="47.71567" lon="-0.98714">
        <ele>90</ele>
        <time>2021-05-04T16:19:34Z</time>
      </trkpt>
      <trkpt lat="47.71573" lon="-0.98674">
        <ele>90</ele>
        <time>2021-05-04T16:19:40Z</time>
      </trkpt>
      <trkpt lat="47.71597" lon="-0.98649">
        <ele>89</ele>
        <time>2021-05-04T16:19:47Z</time>
      </trkpt>
      <trkpt lat="47.71692" lon="-0.98604">
        <ele>87</ele>
        <time>2021-05-04T16:20:10Z</time>
      </trkpt>
      <trkpt lat="47.71728" lon="-0.98604">
        <ele>87</ele>
        <time>2021-05-04T16:20:19Z</time>
      </trkpt>
      <trkpt lat="47.7174" lon="-0.98587">
        <ele>87</ele>
        <time>2021-05-04T16:20:22Z</time>
      </trkpt>
      <trkpt lat="47.71766" lon="-0.98564">
        <ele>87</ele>
        <time>2021-05-04T16:20:29Z</time>
      </trkpt>
      <trkpt lat="47.71789" lon="-0.98528">
        <ele>86</ele>
        <time>2021-05-04T16:20:37Z</time>
      </trkpt>
      <trkpt lat="47.71781" lon="-0.98504">
        <ele>86</ele>
        <time>2021-05-04T16:20:41Z</time>
      </trkpt>
      <trkpt lat="47.71784" lon="-0.98473">
        <ele>85</ele>
        <time>2021-05-04T16:20:46Z</time>
      </trkpt>
      <trkpt lat="47.71801" lon="-0.98464">
        <ele>84</ele>
        <time>2021-05-04T16:20:51Z</time>
      </trkpt>
      <trkpt lat="47.71812" lon="-0.9845">
        <ele>83</ele>
        <time>2021-05-04T16:20:54Z</time>
      </trkpt>
      <trkpt lat="47.71792" lon="-0.98329">
        <ele>81</ele>
        <time>2021-05-04T16:21:14Z</time>
      </trkpt>
      <trkpt lat="47.71764" lon="-0.98237">
        <ele>81</ele>
        <time>2021-05-04T16:21:29Z</time>
      </trkpt>
      <trkpt lat="47.71773" lon="-0.98206">
        <ele>81</ele>
        <time>2021-05-04T16:21:35Z</time>
      </trkpt>
      <trkpt lat="47.71789" lon="-0.98197">
        <ele>81</ele>
        <time>2021-05-04T16:21:39Z</time>
      </trkpt>
      <trkpt lat="47.71805" lon="-0.98171">
        <ele>82</ele>
        <time>2021-05-04T16:21:44Z</time>
      </trkpt>
      <trkpt lat="47.71785" lon="-0.98109">
        <ele>81</ele>
        <time>2021-05-04T16:21:55Z</time>
      </trkpt>
      <trkpt lat="47.71737" lon="-0.97917">
        <ele>79</ele>
        <time>2021-05-04T16:22:27Z</time>
      </trkpt>
      <trkpt lat="47.71731" lon="-0.97941">
        <ele>79</ele>
        <time>2021-05-04T16:22:31Z</time>
      </trkpt>
      <trkpt lat="47.71652" lon="-0.98008">
        <ele>80</ele>
        <time>2021-05-04T16:22:53Z</time>
      </trkpt>
      <trkpt lat="47.71642" lon="-0.98023">
        <ele>80</ele>
        <time>2021-05-04T16:22:56Z</time>
      </trkpt>
      <trkpt lat="47.71632" lon="-0.98052">
        <ele>80</ele>
        <time>2021-05-04T16:23:01Z</time>
      </trkpt>
      <trkpt lat="47.71615" lon="-0.98081">
        <ele>81</ele>
        <time>2021-05-04T16:23:07Z</time>
      </trkpt>
      <trkpt lat="47.71574" lon="-0.98135">
        <ele>82</ele>
        <time>2021-05-04T16:23:20Z</time>
      </trkpt>
      <trkpt lat="47.71556" lon="-0.98174">
        <ele>83</ele>
        <time>2021-05-04T16:23:27Z</time>
      </trkpt>
      <trkpt lat="47.71529" lon="-0.98203">
        <ele>84</ele>
        <time>2021-05-04T16:23:35Z</time>
      </trkpt>
      <trkpt lat="47.71502" lon="-0.9822">
        <ele>84</ele>
        <time>2021-05-04T16:23:42Z</time>
      </trkpt>
      <trkpt lat="47.71494" lon="-0.98232">
        <ele>84</ele>
        <time>2021-05-04T16:23:45Z</time>
      </trkpt>
      <trkpt lat="47.71478" lon="-0.98269">
        <ele>85</ele>
        <time>2021-05-04T16:23:51Z</time>
      </trkpt>
      <trkpt lat="47.7147" lon="-0.98293">
        <ele>85</ele>
        <time>2021-05-04T16:23:56Z</time>
      </trkpt>
      <trkpt lat="47.71466" lon="-0.98316">
        <ele>86</ele>
        <time>2021-05-04T16:23:59Z</time>
      </trkpt>
      <trkpt lat="47.71441" lon="-0.98317">
        <ele>85</ele>
        <time>2021-05-04T16:24:05Z</time>
      </trkpt>
      <trkpt lat="47.71432" lon="-0.98312">
        <ele>85</ele>
        <time>2021-05-04T16:24:07Z</time>
      </trkpt>
      <trkpt lat="47.71411" lon="-0.98306">
        <ele>85</ele>
        <time>2021-05-04T16:24:12Z</time>
      </trkpt>
      <trkpt lat="47.71367" lon="-0.98305">
        <ele>87</ele>
        <time>2021-05-04T16:24:23Z</time>
      </trkpt>
      <trkpt lat="47.71353" lon="-0.983">
        <ele>87</ele>
        <time>2021-05-04T16:24:26Z</time>
      </trkpt>
      <trkpt lat="47.71331" lon="-0.98287">
        <ele>88</ele>
        <time>2021-05-04T16:24:32Z</time>
      </trkpt>
      <trkpt lat="47.71302" lon="-0.98257">
        <ele>89</ele>
        <time>2021-05-04T16:24:40Z</time>
      </trkpt>
      <trkpt lat="47.71262" lon="-0.98221">
        <ele>90</ele>
        <time>2021-05-04T16:24:51Z</time>
      </trkpt>
      <trkpt lat="47.71244" lon="-0.982">
        <ele>91</ele>
        <time>2021-05-04T16:24:56Z</time>
      </trkpt>
      <trkpt lat="47.71206" lon="-0.98145">
        <ele>92</ele>
        <time>2021-05-04T16:25:09Z</time>
      </trkpt>
      <trkpt lat="47.71182" lon="-0.98093">
        <ele>92</ele>
        <time>2021-05-04T16:25:18Z</time>
      </trkpt>
      <trkpt lat="47.71177" lon="-0.9806">
        <ele>92</ele>
        <time>2021-05-04T16:25:24Z</time>
      </trkpt>
      <trkpt lat="47.71178" lon="-0.98017">
        <ele>91</ele>
        <time>2021-05-04T16:25:31Z</time>
      </trkpt>
      <trkpt lat="47.71191" lon="-0.9794">
        <ele>89</ele>
        <time>2021-05-04T16:25:43Z</time>
      </trkpt>
      <trkpt lat="47.71192" lon="-0.97888">
        <ele>89</ele>
        <time>2021-05-04T16:25:51Z</time>
      </trkpt>
      <trkpt lat="47.71184" lon="-0.97831">
        <ele>89</ele>
        <time>2021-05-04T16:26:00Z</time>
      </trkpt>
      <trkpt lat="47.7118" lon="-0.97755">
        <ele>87</ele>
        <time>2021-05-04T16:26:12Z</time>
      </trkpt>
      <trkpt lat="47.71181" lon="-0.97717">
        <ele>87</ele>
        <time>2021-05-04T16:26:18Z</time>
      </trkpt>
      <trkpt lat="47.71153" lon="-0.97573">
        <ele>87</ele>
        <time>2021-05-04T16:26:42Z</time>
      </trkpt>
      <trkpt lat="47.71132" lon="-0.97543">
        <ele>88</ele>
        <time>2021-05-04T16:26:49Z</time>
      </trkpt>
      <trkpt lat="47.71106" lon="-0.97536">
        <ele>89</ele>
        <time>2021-05-04T16:26:55Z</time>
      </trkpt>
      <trkpt lat="47.71068" lon="-0.97512">
        <ele>91</ele>
        <time>2021-05-04T16:27:04Z</time>
      </trkpt>
      <trkpt lat="47.71047" lon="-0.97483">
        <ele>92</ele>
        <time>2021-05-04T16:27:11Z</time>
      </trkpt>
      <trkpt lat="47.71001" lon="-0.97393">
        <ele>92</ele>
        <time>2021-05-04T16:27:29Z</time>
      </trkpt>
      <trkpt lat="47.70956" lon="-0.9728">
        <ele>93</ele>
        <time>2021-05-04T16:27:50Z</time>
      </trkpt>
      <trkpt lat="47.70931" lon="-0.97224">
        <ele>94</ele>
        <time>2021-05-04T16:28:00Z</time>
      </trkpt>
      <trkpt lat="47.7092" lon="-0.97209">
        <ele>95</ele>
        <time>2021-05-04T16:28:04Z</time>
      </trkpt>
      <trkpt lat="47.7092" lon="-0.97178">
        <ele>94</ele>
        <time>2021-05-04T16:28:08Z</time>
      </trkpt>
      <trkpt lat="47.70945" lon="-0.97049">
        <ele>89</ele>
        <time>2021-05-04T16:28:30Z</time>
      </trkpt>
      <trkpt lat="47.70979" lon="-0.96944">
        <ele>85</ele>
        <time>2021-05-04T16:28:48Z</time>
      </trkpt>
      <trkpt lat="47.71009" lon="-0.96893">
        <ele>82</ele>
        <time>2021-05-04T16:28:58Z</time>
      </trkpt>
      <trkpt lat="47.71056" lon="-0.96875">
        <ele>80</ele>
        <time>2021-05-04T16:29:10Z</time>
      </trkpt>
      <trkpt lat="47.71145" lon="-0.96861">
        <ele>80</ele>
        <time>2021-05-04T16:29:31Z</time>
      </trkpt>
      <trkpt lat="47.71193" lon="-0.9685">
        <ele>79</ele>
        <time>2021-05-04T16:29:42Z</time>
      </trkpt>
      <trkpt lat="47.71226" lon="-0.96839">
        <ele>79</ele>
        <time>2021-05-04T16:29:50Z</time>
      </trkpt>
      <trkpt lat="47.71289" lon="-0.96813">
        <ele>76</ele>
        <time>2021-05-04T16:30:05Z</time>
      </trkpt>
      <trkpt lat="47.7134" lon="-0.96787">
        <ele>73</ele>
        <time>2021-05-04T16:30:18Z</time>
      </trkpt>
      <trkpt lat="47.71361" lon="-0.96754">
        <ele>73</ele>
        <time>2021-05-04T16:30:25Z</time>
      </trkpt>
      <trkpt lat="47.71359" lon="-0.96731">
        <ele>73</ele>
        <time>2021-05-04T16:30:29Z</time>
      </trkpt>
      <trkpt lat="47.71338" lon="-0.96668">
        <ele>75</ele>
        <time>2021-05-04T16:30:40Z</time>
      </trkpt>
      <trkpt lat="47.71312" lon="-0.96577">
        <ele>74</ele>
        <time>2021-05-04T16:30:55Z</time>
      </trkpt>
      <trkpt lat="47.71304" lon="-0.96524">
        <ele>73</ele>
        <time>2021-05-04T16:31:04Z</time>
      </trkpt>
      <trkpt lat="47.7131" lon="-0.96474">
        <ele>71</ele>
        <time>2021-05-04T16:31:12Z</time>
      </trkpt>
      <trkpt lat="47.71292" lon="-0.96423">
        <ele>70</ele>
        <time>2021-05-04T16:31:21Z</time>
      </trkpt>
      <trkpt lat="47.71265" lon="-0.96398">
        <ele>69</ele>
        <time>2021-05-04T16:31:28Z</time>
      </trkpt>
      <trkpt lat="47.71235" lon="-0.96358">
        <ele>70</ele>
        <time>2021-05-04T16:31:38Z</time>
      </trkpt>
      <trkpt lat="47.71221" lon="-0.96329">
        <ele>70</ele>
        <time>2021-05-04T16:31:43Z</time>
      </trkpt>
      <trkpt lat="47.71215" lon="-0.96265">
        <ele>70</ele>
        <time>2021-05-04T16:31:53Z</time>
      </trkpt>
      <trkpt lat="47.71194" lon="-0.96104">
        <ele>71</ele>
        <time>2021-05-04T16:32:19Z</time>
      </trkpt>
      <trkpt lat="47.71187" lon="-0.96008">
        <ele>70</ele>
        <time>2021-05-04T16:32:34Z</time>
      </trkpt>
      <trkpt lat="47.71179" lon="-0.95973">
        <ele>70</ele>
        <time>2021-05-04T16:32:40Z</time>
      </trkpt>
      <trkpt lat="47.71155" lon="-0.95893">
        <ele>67</ele>
        <time>2021-05-04T16:32:54Z</time>
      </trkpt>
      <trkpt lat="47.71139" lon="-0.95814">
        <ele>65</ele>
        <time>2021-05-04T16:33:07Z</time>
      </trkpt>
      <trkpt lat="47.71125" lon="-0.95801">
        <ele>66</ele>
        <time>2021-05-04T16:33:11Z</time>
      </trkpt>
      <trkpt lat="47.71122" lon="-0.9579">
        <ele>66</ele>
        <time>2021-05-04T16:33:13Z</time>
      </trkpt>
      <trkpt lat="47.71133" lon="-0.95785">
        <ele>65</ele>
        <time>2021-05-04T16:33:15Z</time>
      </trkpt>
      <trkpt lat="47.7114" lon="-0.95748">
        <ele>65</ele>
        <time>2021-05-04T16:33:21Z</time>
      </trkpt>
      <trkpt lat="47.71145" lon="-0.95695">
        <ele>65</ele>
        <time>2021-05-04T16:33:30Z</time>
      </trkpt>
      <trkpt lat="47.7115" lon="-0.9562">
        <ele>65</ele>
        <time>2021-05-04T16:33:42Z</time>
      </trkpt>
      <trkpt lat="47.7115" lon="-0.95574">
        <ele>65</ele>
        <time>2021-05-04T16:33:49Z</time>
      </trkpt>
      <trkpt lat="47.71147" lon="-0.95527">
        <ele>64</ele>
        <time>2021-05-04T16:33:56Z</time>
      </trkpt>
      <trkpt lat="47.71142" lon="-0.95493">
        <ele>64</ele>
        <time>2021-05-04T16:34:02Z</time>
      </trkpt>
      <trkpt lat="47.71122" lon="-0.95485">
        <ele>66</ele>
        <time>2021-05-04T16:34:06Z</time>
      </trkpt>
      <trkpt lat="47.71096" lon="-0.9548">
        <ele>67</ele>
        <time>2021-05-04T16:34:13Z</time>
      </trkpt>
      <trkpt lat="47.7107" lon="-0.95471">
        <ele>69</ele>
        <time>2021-05-04T16:34:19Z</time>
      </trkpt>
      <trkpt lat="47.71065" lon="-0.95458">
        <ele>70</ele>
        <time>2021-05-04T16:34:21Z</time>
      </trkpt>
      <trkpt lat="47.71088" lon="-0.95458">
        <ele>68</ele>
        <time>2021-05-04T16:34:27Z</time>
      </trkpt>
      <trkpt lat="47.7111" lon="-0.95452">
        <ele>67</ele>
        <time>2021-05-04T16:34:32Z</time>
      </trkpt>
      <trkpt lat="47.71124" lon="-0.95429">
        <ele>66</ele>
        <time>2021-05-04T16:34:37Z</time>
      </trkpt>
      <trkpt lat="47.71135" lon="-0.95395">
        <ele>65</ele>
        <time>2021-05-04T16:34:43Z</time>
      </trkpt>
      <trkpt lat="47.71175" lon="-0.95296">
        <ele>65</ele>
        <time>2021-05-04T16:35:01Z</time>
      </trkpt>
      <trkpt lat="47.71216" lon="-0.95224">
        <ele>65</ele>
        <time>2021-05-04T16:35:16Z</time>
      </trkpt>
      <trkpt lat="47.71224" lon="-0.95193">
        <ele>64</ele>
        <time>2021-05-04T16:35:21Z</time>
      </trkpt>
      <trkpt lat="47.7121" lon="-0.95119">
        <ele>66</ele>
        <time>2021-05-04T16:35:33Z</time>
      </trkpt>
      <trkpt lat="47.71207" lon="-0.95066">
        <ele>66</ele>
        <time>2021-05-04T16:35:41Z</time>
      </trkpt>
      <trkpt lat="47.71211" lon="-0.94991">
        <ele>65</ele>
        <time>2021-05-04T16:35:53Z</time>
      </trkpt>
      <trkpt lat="47.71221" lon="-0.94935">
        <ele>63</ele>
        <time>2021-05-04T16:36:02Z</time>
      </trkpt>
      <trkpt lat="47.71221" lon="-0.9489">
        <ele>65</ele>
        <time>2021-05-04T16:36:09Z</time>
      </trkpt>
      <trkpt lat="47.7124" lon="-0.94884">
        <ele>63</ele>
        <time>2021-05-04T16:36:14Z</time>
      </trkpt>
      <trkpt lat="47.71262" lon="-0.94865">
        <ele>62</ele>
        <time>2021-05-04T16:36:20Z</time>
      </trkpt>
      <trkpt lat="47.71274" lon="-0.94835">
        <ele>63</ele>
        <time>2021-05-04T16:36:25Z</time>
      </trkpt>
      <trkpt lat="47.71277" lon="-0.94809">
        <ele>63</ele>
        <time>2021-05-04T16:36:29Z</time>
      </trkpt>
      <trkpt lat="47.71272" lon="-0.94732">
        <ele>64</ele>
        <time>2021-05-04T16:36:41Z</time>
      </trkpt>
      <trkpt lat="47.71268" lon="-0.94703">
        <ele>64</ele>
        <time>2021-05-04T16:36:46Z</time>
      </trkpt>
      <trkpt lat="47.71292" lon="-0.94579">
        <ele>60</ele>
        <time>2021-05-04T16:37:06Z</time>
      </trkpt>
      <trkpt lat="47.71286" lon="-0.94524">
        <ele>60</ele>
        <time>2021-05-04T16:37:15Z</time>
      </trkpt>
      <trkpt lat="47.71277" lon="-0.94489">
        <ele>61</ele>
        <time>2021-05-04T16:37:21Z</time>
      </trkpt>
      <trkpt lat="47.71258" lon="-0.94388">
        <ele>63</ele>
        <time>2021-05-04T16:37:38Z</time>
      </trkpt>
      <trkpt lat="47.7125" lon="-0.94361">
        <ele>64</ele>
        <time>2021-05-04T16:37:42Z</time>
      </trkpt>
      <trkpt lat="47.71224" lon="-0.94314">
        <ele>66</ele>
        <time>2021-05-04T16:37:52Z</time>
      </trkpt>
      <trkpt lat="47.71229" lon="-0.94274">
        <ele>66</ele>
        <time>2021-05-04T16:37:58Z</time>
      </trkpt>
      <trkpt lat="47.7124" lon="-0.94258">
        <ele>66</ele>
        <time>2021-05-04T16:38:02Z</time>
      </trkpt>
      <trkpt lat="47.71254" lon="-0.94264">
        <ele>65</ele>
        <time>2021-05-04T16:38:05Z</time>
      </trkpt>
      <trkpt lat="47.71287" lon="-0.94259">
        <ele>62</ele>
        <time>2021-05-04T16:38:13Z</time>
      </trkpt>
      <trkpt lat="47.71328" lon="-0.94214">
        <ele>59</ele>
        <time>2021-05-04T16:38:25Z</time>
      </trkpt>
      <trkpt lat="47.7138" lon="-0.94123">
        <ele>59</ele>
        <time>2021-05-04T16:38:44Z</time>
      </trkpt>
      <trkpt lat="47.7139" lon="-0.9408">
        <ele>59</ele>
        <time>2021-05-04T16:38:51Z</time>
      </trkpt>
      <trkpt lat="47.71396" lon="-0.94037">
        <ele>59</ele>
        <time>2021-05-04T16:38:58Z</time>
      </trkpt>
      <trkpt lat="47.71394" lon="-0.93951">
        <ele>60</ele>
        <time>2021-05-04T16:39:11Z</time>
      </trkpt>
      <trkpt lat="47.71387" lon="-0.93855">
        <ele>61</ele>
        <time>2021-05-04T16:39:26Z</time>
      </trkpt>
      <trkpt lat="47.71377" lon="-0.93784">
        <ele>60</ele>
        <time>2021-05-04T16:39:38Z</time>
      </trkpt>
      <trkpt lat="47.71352" lon="-0.93701">
        <ele>61</ele>
        <time>2021-05-04T16:39:52Z</time>
      </trkpt>
      <trkpt lat="47.71346" lon="-0.93642">
        <ele>60</ele>
        <time>2021-05-04T16:40:01Z</time>
      </trkpt>
      <trkpt lat="47.71321" lon="-0.93569">
        <ele>58</ele>
        <time>2021-05-04T16:40:14Z</time>
      </trkpt>
      <trkpt lat="47.71328" lon="-0.93548">
        <ele>57</ele>
        <time>2021-05-04T16:40:18Z</time>
      </trkpt>
      <trkpt lat="47.71345" lon="-0.93531">
        <ele>57</ele>
        <time>2021-05-04T16:40:23Z</time>
      </trkpt>
      <trkpt lat="47.71368" lon="-0.93441">
        <ele>59</ele>
        <time>2021-05-04T16:40:38Z</time>
      </trkpt>
      <trkpt lat="47.71378" lon="-0.93378">
        <ele>60</ele>
        <time>2021-05-04T16:40:48Z</time>
      </trkpt>
      <trkpt lat="47.71374" lon="-0.93349">
        <ele>60</ele>
        <time>2021-05-04T16:40:53Z</time>
      </trkpt>
      <trkpt lat="47.71364" lon="-0.93306">
        <ele>59</ele>
        <time>2021-05-04T16:41:00Z</time>
      </trkpt>
      <trkpt lat="47.71352" lon="-0.93289">
        <ele>58</ele>
        <time>2021-05-04T16:41:04Z</time>
      </trkpt>
      <trkpt lat="47.71311" lon="-0.93243">
        <ele>54</ele>
        <time>2021-05-04T16:41:16Z</time>
      </trkpt>
      <trkpt lat="47.71296" lon="-0.9322">
        <ele>54</ele>
        <time>2021-05-04T16:41:21Z</time>
      </trkpt>
      <trkpt lat="47.71284" lon="-0.93163">
        <ele>54</ele>
        <time>2021-05-04T16:41:30Z</time>
      </trkpt>
      <trkpt lat="47.71284" lon="-0.93105">
        <ele>57</ele>
        <time>2021-05-04T16:41:39Z</time>
      </trkpt>
      <trkpt lat="47.71296" lon="-0.931">
        <ele>59</ele>
        <time>2021-05-04T16:41:42Z</time>
      </trkpt>
      <trkpt lat="47.7131" lon="-0.93098">
        <ele>61</ele>
        <time>2021-05-04T16:41:45Z</time>
      </trkpt>
      <trkpt lat="47.71326" lon="-0.93053">
        <ele>64</ele>
        <time>2021-05-04T16:41:53Z</time>
      </trkpt>
      <trkpt lat="47.71322" lon="-0.93035">
        <ele>63</ele>
        <time>2021-05-04T16:41:56Z</time>
      </trkpt>
      <trkpt lat="47.71311" lon="-0.93036">
        <ele>62</ele>
        <time>2021-05-04T16:41:59Z</time>
      </trkpt>
      <trkpt lat="47.71267" lon="-0.93061">
        <ele>57</ele>
        <time>2021-05-04T16:42:10Z</time>
      </trkpt>
      <trkpt lat="47.7124" lon="-0.93062">
        <ele>56</ele>
        <time>2021-05-04T16:42:16Z</time>
      </trkpt>
      <trkpt lat="47.71219" lon="-0.93045">
        <ele>58</ele>
        <time>2021-05-04T16:42:22Z</time>
      </trkpt>
      <trkpt lat="47.71163" lon="-0.92984">
        <ele>61</ele>
        <time>2021-05-04T16:42:38Z</time>
      </trkpt>
      <trkpt lat="47.71148" lon="-0.92964">
        <ele>62</ele>
        <time>2021-05-04T16:42:43Z</time>
      </trkpt>
      <trkpt lat="47.7115" lon="-0.92922">
        <ele>62</ele>
        <time>2021-05-04T16:42:49Z</time>
      </trkpt>
      <trkpt lat="47.71146" lon="-0.92888">
        <ele>61</ele>
        <time>2021-05-04T16:42:55Z</time>
      </trkpt>
      <trkpt lat="47.7113" lon="-0.92853">
        <ele>61</ele>
        <time>2021-05-04T16:43:01Z</time>
      </trkpt>
      <trkpt lat="47.71103" lon="-0.92836">
        <ele>61</ele>
        <time>2021-05-04T16:43:08Z</time>
      </trkpt>
      <trkpt lat="47.71088" lon="-0.92847">
        <ele>61</ele>
        <time>2021-05-04T16:43:12Z</time>
      </trkpt>
      <trkpt lat="47.71042" lon="-0.92905">
        <ele>65</ele>
        <time>2021-05-04T16:43:26Z</time>
      </trkpt>
      <trkpt lat="47.71014" lon="-0.92927">
        <ele>68</ele>
        <time>2021-05-04T16:43:34Z</time>
      </trkpt>
      <trkpt lat="47.70979" lon="-0.92962">
        <ele>70</ele>
        <time>2021-05-04T16:43:43Z</time>
      </trkpt>
      <trkpt lat="47.70968" lon="-0.92964">
        <ele>70</ele>
        <time>2021-05-04T16:43:46Z</time>
      </trkpt>
      <trkpt lat="47.70969" lon="-0.92915">
        <ele>69</ele>
        <time>2021-05-04T16:43:54Z</time>
      </trkpt>
      <trkpt lat="47.71" lon="-0.92679">
        <ele>62</ele>
        <time>2021-05-04T16:44:32Z</time>
      </trkpt>
      <trkpt lat="47.70999" lon="-0.92611">
        <ele>63</ele>
        <time>2021-05-04T16:44:42Z</time>
      </trkpt>
      <trkpt lat="47.70973" lon="-0.92532">
        <ele>62</ele>
        <time>2021-05-04T16:44:56Z</time>
      </trkpt>
      <trkpt lat="47.70934" lon="-0.92453">
        <ele>61</ele>
        <time>2021-05-04T16:45:11Z</time>
      </trkpt>
      <trkpt lat="47.7092" lon="-0.92396">
        <ele>58</ele>
        <time>2021-05-04T16:45:21Z</time>
      </trkpt>
      <trkpt lat="47.70902" lon="-0.92339">
        <ele>54</ele>
        <time>2021-05-04T16:45:31Z</time>
      </trkpt>
      <trkpt lat="47.70872" lon="-0.92278">
        <ele>51</ele>
        <time>2021-05-04T16:45:43Z</time>
      </trkpt>
      <trkpt lat="47.70823" lon="-0.92231">
        <ele>48</ele>
        <time>2021-05-04T16:45:56Z</time>
      </trkpt>
      <trkpt lat="47.70794" lon="-0.92177">
        <ele>47</ele>
        <time>2021-05-04T16:46:07Z</time>
      </trkpt>
      <trkpt lat="47.70794" lon="-0.92124">
        <ele>49</ele>
        <time>2021-05-04T16:46:16Z</time>
      </trkpt>
      <trkpt lat="47.70787" lon="-0.92083">
        <ele>50</ele>
        <time>2021-05-04T16:46:22Z</time>
      </trkpt>
      <trkpt lat="47.70783" lon="-0.91979">
        <ele>52</ele>
        <time>2021-05-04T16:46:39Z</time>
      </trkpt>
      <trkpt lat="47.70772" lon="-0.91941">
        <ele>51</ele>
        <time>2021-05-04T16:46:45Z</time>
      </trkpt>
      <trkpt lat="47.70763" lon="-0.91921">
        <ele>49</ele>
        <time>2021-05-04T16:46:49Z</time>
      </trkpt>
      <trkpt lat="47.7075" lon="-0.91902">
        <ele>48</ele>
        <time>2021-05-04T16:46:53Z</time>
      </trkpt>
      <trkpt lat="47.70734" lon="-0.91895">
        <ele>48</ele>
        <time>2021-05-04T16:46:57Z</time>
      </trkpt>
      <trkpt lat="47.70698" lon="-0.91921">
        <ele>46</ele>
        <time>2021-05-04T16:47:06Z</time>
      </trkpt>
      <trkpt lat="47.70675" lon="-0.91932">
        <ele>47</ele>
        <time>2021-05-04T16:47:12Z</time>
      </trkpt>
      <trkpt lat="47.70657" lon="-0.91896">
        <ele>47</ele>
        <time>2021-05-04T16:47:19Z</time>
      </trkpt>
      <trkpt lat="47.70645" lon="-0.91827">
        <ele>48</ele>
        <time>2021-05-04T16:47:30Z</time>
      </trkpt>
      <trkpt lat="47.70606" lon="-0.91677">
        <ele>50</ele>
        <time>2021-05-04T16:47:56Z</time>
      </trkpt>
      <trkpt lat="47.70593" lon="-0.9157">
        <ele>44</ele>
        <time>2021-05-04T16:48:13Z</time>
      </trkpt>
      <trkpt lat="47.70594" lon="-0.9147">
        <ele>37</ele>
        <time>2021-05-04T16:48:28Z</time>
      </trkpt>
      <trkpt lat="47.70578" lon="-0.9143">
        <ele>35</ele>
        <time>2021-05-04T16:48:36Z</time>
      </trkpt>
      <trkpt lat="47.70527" lon="-0.9144">
        <ele>41</ele>
        <time>2021-05-04T16:48:48Z</time>
      </trkpt>
      <trkpt lat="47.70493" lon="-0.91452">
        <ele>45</ele>
        <time>2021-05-04T16:48:56Z</time>
      </trkpt>
      <trkpt lat="47.70475" lon="-0.91439">
        <ele>45</ele>
        <time>2021-05-04T16:49:00Z</time>
      </trkpt>
      <trkpt lat="47.7047" lon="-0.9142">
        <ele>43</ele>
        <time>2021-05-04T16:49:04Z</time>
      </trkpt>
      <trkpt lat="47.70427" lon="-0.91428">
        <ele>47</ele>
        <time>2021-05-04T16:49:14Z</time>
      </trkpt>
      <trkpt lat="47.70406" lon="-0.91425">
        <ele>47</ele>
        <time>2021-05-04T16:49:19Z</time>
      </trkpt>
      <trkpt lat="47.70379" lon="-0.91415">
        <ele>48</ele>
        <time>2021-05-04T16:49:25Z</time>
      </trkpt>
      <trkpt lat="47.70364" lon="-0.91406">
        <ele>49</ele>
        <time>2021-05-04T16:49:29Z</time>
      </trkpt>
      <trkpt lat="47.70372" lon="-0.91361">
        <ele>46</ele>
        <time>2021-05-04T16:49:36Z</time>
      </trkpt>
      <trkpt lat="47.70335" lon="-0.91316">
        <ele>48</ele>
        <time>2021-05-04T16:49:48Z</time>
      </trkpt>
      <trkpt lat="47.70254" lon="-0.91244">
        <ele>50</ele>
        <time>2021-05-04T16:50:10Z</time>
      </trkpt>
      <trkpt lat="47.70198" lon="-0.91208">
        <ele>49</ele>
        <time>2021-05-04T16:50:24Z</time>
      </trkpt>
      <trkpt lat="47.70182" lon="-0.91189">
        <ele>49</ele>
        <time>2021-05-04T16:50:29Z</time>
      </trkpt>
      <trkpt lat="47.70171" lon="-0.91168">
        <ele>48</ele>
        <time>2021-05-04T16:50:33Z</time>
      </trkpt>
      <trkpt lat="47.70143" lon="-0.91076">
        <ele>49</ele>
        <time>2021-05-04T16:50:49Z</time>
      </trkpt>
      <trkpt lat="47.70114" lon="-0.90991">
        <ele>47</ele>
        <time>2021-05-04T16:51:04Z</time>
      </trkpt>
      <trkpt lat="47.70099" lon="-0.9096">
        <ele>47</ele>
        <time>2021-05-04T16:51:10Z</time>
      </trkpt>
      <trkpt lat="47.70084" lon="-0.90936">
        <ele>46</ele>
        <time>2021-05-04T16:51:15Z</time>
      </trkpt>
      <trkpt lat="47.70054" lon="-0.90898">
        <ele>46</ele>
        <time>2021-05-04T16:51:24Z</time>
      </trkpt>
      <trkpt lat="47.70012" lon="-0.90864">
        <ele>45</ele>
        <time>2021-05-04T16:51:35Z</time>
      </trkpt>
      <trkpt lat="47.69985" lon="-0.90852">
        <ele>44</ele>
        <time>2021-05-04T16:51:42Z</time>
      </trkpt>
      <trkpt lat="47.69977" lon="-0.9083">
        <ele>44</ele>
        <time>2021-05-04T16:51:46Z</time>
      </trkpt>
      <trkpt lat="47.69998" lon="-0.90788">
        <ele>44</ele>
        <time>2021-05-04T16:51:54Z</time>
      </trkpt>
      <trkpt lat="47.69996" lon="-0.90772">
        <ele>44</ele>
        <time>2021-05-04T16:51:56Z</time>
      </trkpt>
      <trkpt lat="47.69976" lon="-0.90795">
        <ele>43</ele>
        <time>2021-05-04T16:52:02Z</time>
      </trkpt>
      <trkpt lat="47.69961" lon="-0.90819">
        <ele>43</ele>
        <time>2021-05-04T16:52:07Z</time>
      </trkpt>
      <trkpt lat="47.6994" lon="-0.90821">
        <ele>43</ele>
        <time>2021-05-04T16:52:12Z</time>
      </trkpt>
      <trkpt lat="47.69873" lon="-0.90801">
        <ele>41</ele>
        <time>2021-05-04T16:52:28Z</time>
      </trkpt>
      <trkpt lat="47.6984" lon="-0.90766">
        <ele>40</ele>
        <time>2021-05-04T16:52:38Z</time>
      </trkpt>
      <trkpt lat="47.69744" lon="-0.90533">
        <ele>40</ele>
        <time>2021-05-04T16:53:21Z</time>
      </trkpt>
      <trkpt lat="47.69705" lon="-0.90455">
        <ele>39</ele>
        <time>2021-05-04T16:53:36Z</time>
      </trkpt>
      <trkpt lat="47.69526" lon="-0.90173">
        <ele>39</ele>
        <time>2021-05-04T16:54:37Z</time>
      </trkpt>
      <trkpt lat="47.69485" lon="-0.90112">
        <ele>40</ele>
        <time>2021-05-04T16:54:51Z</time>
      </trkpt>
      <trkpt lat="47.69464" lon="-0.90086">
        <ele>41</ele>
        <time>2021-05-04T16:54:57Z</time>
      </trkpt>
      <trkpt lat="47.69443" lon="-0.90066">
        <ele>41</ele>
        <time>2021-05-04T16:55:03Z</time>
      </trkpt>
      <trkpt lat="47.69385" lon="-0.90021">
        <ele>43</ele>
        <time>2021-05-04T16:55:18Z</time>
      </trkpt>
      <trkpt lat="47.69363" lon="-0.89998">
        <ele>44</ele>
        <time>2021-05-04T16:55:24Z</time>
      </trkpt>
      <trkpt lat="47.6932" lon="-0.89896">
        <ele>45</ele>
        <time>2021-05-04T16:55:43Z</time>
      </trkpt>
      <trkpt lat="47.69304" lon="-0.8984">
        <ele>46</ele>
        <time>2021-05-04T16:55:53Z</time>
      </trkpt>
      <trkpt lat="47.69297" lon="-0.89806">
        <ele>45</ele>
        <time>2021-05-04T16:55:58Z</time>
      </trkpt>
      <trkpt lat="47.69294" lon="-0.89776">
        <ele>45</ele>
        <time>2021-05-04T16:56:03Z</time>
      </trkpt>
      <trkpt lat="47.69293" lon="-0.89707">
        <ele>44</ele>
        <time>2021-05-04T16:56:14Z</time>
      </trkpt>
      <trkpt lat="47.69299" lon="-0.89633">
        <ele>43</ele>
        <time>2021-05-04T16:56:26Z</time>
      </trkpt>
      <trkpt lat="47.69309" lon="-0.89588">
        <ele>42</ele>
        <time>2021-05-04T16:56:33Z</time>
      </trkpt>
      <trkpt lat="47.69329" lon="-0.89544">
        <ele>41</ele>
        <time>2021-05-04T16:56:41Z</time>
      </trkpt>
      <trkpt lat="47.69366" lon="-0.89497">
        <ele>41</ele>
        <time>2021-05-04T16:56:53Z</time>
      </trkpt>
      <trkpt lat="47.69372" lon="-0.89469">
        <ele>41</ele>
        <time>2021-05-04T16:56:57Z</time>
      </trkpt>
      <trkpt lat="47.69344" lon="-0.89447">
        <ele>39</ele>
        <time>2021-05-04T16:57:05Z</time>
      </trkpt>
      <trkpt lat="47.69326" lon="-0.89414">
        <ele>38</ele>
        <time>2021-05-04T16:57:12Z</time>
      </trkpt>
      <trkpt lat="47.69295" lon="-0.89391">
        <ele>40</ele>
        <time>2021-05-04T16:57:20Z</time>
      </trkpt>
      <trkpt lat="47.69268" lon="-0.8938">
        <ele>41</ele>
        <time>2021-05-04T16:57:26Z</time>
      </trkpt>
      <trkpt lat="47.69251" lon="-0.89384">
        <ele>42</ele>
        <time>2021-05-04T16:57:30Z</time>
      </trkpt>
      <trkpt lat="47.69229" lon="-0.89398">
        <ele>43</ele>
        <time>2021-05-04T16:57:36Z</time>
      </trkpt>
      <trkpt lat="47.69209" lon="-0.89386">
        <ele>43</ele>
        <time>2021-05-04T16:57:41Z</time>
      </trkpt>
      <trkpt lat="47.692" lon="-0.89356">
        <ele>44</ele>
        <time>2021-05-04T16:57:46Z</time>
      </trkpt>
      <trkpt lat="47.69209" lon="-0.89325">
        <ele>44</ele>
        <time>2021-05-04T16:57:51Z</time>
      </trkpt>
      <trkpt lat="47.69232" lon="-0.89299">
        <ele>43</ele>
        <time>2021-05-04T16:57:58Z</time>
      </trkpt>
      <trkpt lat="47.69303" lon="-0.89181">
        <ele>39</ele>
        <time>2021-05-04T16:58:23Z</time>
      </trkpt>
      <trkpt lat="47.69319" lon="-0.89142">
        <ele>37</ele>
        <time>2021-05-04T16:58:30Z</time>
      </trkpt>
      <trkpt lat="47.69326" lon="-0.89088">
        <ele>34</ele>
        <time>2021-05-04T16:58:39Z</time>
      </trkpt>
      <trkpt lat="47.6932" lon="-0.89045">
        <ele>33</ele>
        <time>2021-05-04T16:58:46Z</time>
      </trkpt>
      <trkpt lat="47.69249" lon="-0.8887">
        <ele>27</ele>
        <time>2021-05-04T16:59:18Z</time>
      </trkpt>
      <trkpt lat="47.69237" lon="-0.88816">
        <ele>26</ele>
        <time>2021-05-04T16:59:27Z</time>
      </trkpt>
      <trkpt lat="47.69224" lon="-0.88683">
        <ele>27</ele>
        <time>2021-05-04T16:59:48Z</time>
      </trkpt>
      <trkpt lat="47.69213" lon="-0.88648">
        <ele>28</ele>
        <time>2021-05-04T16:59:54Z</time>
      </trkpt>
      <trkpt lat="47.69191" lon="-0.88617">
        <ele>28</ele>
        <time>2021-05-04T17:00:01Z</time>
      </trkpt>
      <trkpt lat="47.69166" lon="-0.88592">
        <ele>28</ele>
        <time>2021-05-04T17:00:08Z</time>
      </trkpt>
      <trkpt lat="47.69086" lon="-0.88535">
        <ele>30</ele>
        <time>2021-05-04T17:00:29Z</time>
      </trkpt>
      <trkpt lat="47.69036" lon="-0.88491">
        <ele>30</ele>
        <time>2021-05-04T17:00:42Z</time>
      </trkpt>
      <trkpt lat="47.68967" lon="-0.88403">
        <ele>32</ele>
        <time>2021-05-04T17:01:04Z</time>
      </trkpt>
      <trkpt lat="47.68856" lon="-0.88284">
        <ele>30</ele>
        <time>2021-05-04T17:01:36Z</time>
      </trkpt>
      <trkpt lat="47.68819" lon="-0.88241">
        <ele>30</ele>
        <time>2021-05-04T17:01:46Z</time>
      </trkpt>
      <trkpt lat="47.68791" lon="-0.88201">
        <ele>30</ele>
        <time>2021-05-04T17:01:56Z</time>
      </trkpt>
      <trkpt lat="47.68691" lon="-0.8807">
        <ele>29</ele>
        <time>2021-05-04T17:02:27Z</time>
      </trkpt>
      <trkpt lat="47.68678" lon="-0.8804">
        <ele>29</ele>
        <time>2021-05-04T17:02:32Z</time>
      </trkpt>
      <trkpt lat="47.68675" lon="-0.88">
        <ele>30</ele>
        <time>2021-05-04T17:02:39Z</time>
      </trkpt>
      <trkpt lat="47.68674" lon="-0.87958">
        <ele>32</ele>
        <time>2021-05-04T17:02:45Z</time>
      </trkpt>
      <trkpt lat="47.68677" lon="-0.87927">
        <ele>34</ele>
        <time>2021-05-04T17:02:50Z</time>
      </trkpt>
      <trkpt lat="47.68685" lon="-0.87911">
        <ele>35</ele>
        <time>2021-05-04T17:02:53Z</time>
      </trkpt>
      <trkpt lat="47.68682" lon="-0.87903">
        <ele>35</ele>
        <time>2021-05-04T17:02:55Z</time>
      </trkpt>
      <trkpt lat="47.68698" lon="-0.87911">
        <ele>36</ele>
        <time>2021-05-04T17:02:59Z</time>
      </trkpt>
      <trkpt lat="47.68746" lon="-0.87925">
        <ele>40</ele>
        <time>2021-05-04T17:03:10Z</time>
      </trkpt>
      <trkpt lat="47.68772" lon="-0.8793">
        <ele>42</ele>
        <time>2021-05-04T17:03:16Z</time>
      </trkpt>
      <trkpt lat="47.68812" lon="-0.87933">
        <ele>45</ele>
        <time>2021-05-04T17:03:26Z</time>
      </trkpt>
      <trkpt lat="47.68869" lon="-0.87927">
        <ele>47</ele>
        <time>2021-05-04T17:03:39Z</time>
      </trkpt>
      <trkpt lat="47.68889" lon="-0.87921">
        <ele>48</ele>
        <time>2021-05-04T17:03:44Z</time>
      </trkpt>
      <trkpt lat="47.68908" lon="-0.87919">
        <ele>48</ele>
        <time>2021-05-04T17:03:48Z</time>
      </trkpt>
      <trkpt lat="47.68932" lon="-0.8791">
        <ele>48</ele>
        <time>2021-05-04T17:03:54Z</time>
      </trkpt>
      <trkpt lat="47.68954" lon="-0.87905">
        <ele>48</ele>
        <time>2021-05-04T17:03:59Z</time>
      </trkpt>
      <trkpt lat="47.69037" lon="-0.87854">
        <ele>49</ele>
        <time>2021-05-04T17:04:20Z</time>
      </trkpt>
      <trkpt lat="47.6906" lon="-0.87829">
        <ele>50</ele>
        <time>2021-05-04T17:04:27Z</time>
      </trkpt>
      <trkpt lat="47.69079" lon="-0.87801">
        <ele>50</ele>
        <time>2021-05-04T17:04:33Z</time>
      </trkpt>
      <trkpt lat="47.69095" lon="-0.87772">
        <ele>51</ele>
        <time>2021-05-04T17:04:39Z</time>
      </trkpt>
      <trkpt lat="47.69107" lon="-0.87741">
        <ele>51</ele>
        <time>2021-05-04T17:04:45Z</time>
      </trkpt>
      <trkpt lat="47.69125" lon="-0.87674">
        <ele>51</ele>
        <time>2021-05-04T17:04:56Z</time>
      </trkpt>
      <trkpt lat="47.69131" lon="-0.87642">
        <ele>52</ele>
        <time>2021-05-04T17:05:01Z</time>
      </trkpt>
      <trkpt lat="47.69142" lon="-0.87623">
        <ele>53</ele>
        <time>2021-05-04T17:05:05Z</time>
      </trkpt>
      <trkpt lat="47.69168" lon="-0.87596">
        <ele>54</ele>
        <time>2021-05-04T17:05:12Z</time>
      </trkpt>
      <trkpt lat="47.69171" lon="-0.87562">
        <ele>54</ele>
        <time>2021-05-04T17:05:18Z</time>
      </trkpt>
      <trkpt lat="47.69162" lon="-0.87497">
        <ele>55</ele>
        <time>2021-05-04T17:05:28Z</time>
      </trkpt>
      <trkpt lat="47.6912" lon="-0.8729">
        <ele>54</ele>
        <time>2021-05-04T17:06:02Z</time>
      </trkpt>
      <trkpt lat="47.69102" lon="-0.87173">
        <ele>53</ele>
        <time>2021-05-04T17:06:21Z</time>
      </trkpt>
      <trkpt lat="47.6909" lon="-0.87131">
        <ele>54</ele>
        <time>2021-05-04T17:06:28Z</time>
      </trkpt>
      <trkpt lat="47.69096" lon="-0.8712">
        <ele>54</ele>
        <time>2021-05-04T17:06:30Z</time>
      </trkpt>
      <trkpt lat="47.69138" lon="-0.87104">
        <ele>55</ele>
        <time>2021-05-04T17:06:41Z</time>
      </trkpt>
      <trkpt lat="47.69164" lon="-0.87099">
        <ele>56</ele>
        <time>2021-05-04T17:06:47Z</time>
      </trkpt>
    </trkseg>
  </trk>
</gpx>